<?xml version="1.0" encoding="UTF-8" standalone="no" ?>
<gpx xmlns="http://www.topografix.com/GPX/1/1" xmlns:xsi="http://www.w3.org/2001/XMLSchema-instance" xsi:schemaLocation="http://www.topografix.com/GPX/1/1 http://www.topografix.com/GPX/1/1/gpx.xsd" version="1.1" creator="VisuGPX - https://www.visugpx.com">
  <metadata>
    <name>secteur Saverne - Dabo - Petite Pierre</name>
  </metadata>
  <trk>
    <name><![CDATA[secteur Saverne - Dabo - Petite Pierre_28]]></name>
    <trkseg>
      <trkpt lat="48.73095" lon="7.33285">
        <ele>256.88</ele>
        <time>2020-05-21T19:42:22.000Z</time>
      </trkpt>
      <trkpt lat="48.73095" lon="7.33285">
        <ele>256.88</ele>
        <time>2020-05-21T19:42:22.000Z</time>
      </trkpt>
      <trkpt lat="48.73095" lon="7.33285">
        <ele>256.88</ele>
        <time>2020-05-21T19:42:22.000Z</time>
      </trkpt>
      <trkpt lat="48.73095" lon="7.33285">
        <ele>256.88</ele>
        <time>2020-05-21T19:42:22.000Z</time>
      </trkpt>
      <trkpt lat="48.73095" lon="7.33285">
        <ele>256.88</ele>
        <time>2020-05-21T19:42:22.000Z</time>
      </trkpt>
      <trkpt lat="48.73095" lon="7.33285">
        <ele>256.88</ele>
        <time>2020-05-21T19:42:22.000Z</time>
      </trkpt>
      <trkpt lat="48.73095" lon="7.33285">
        <ele>256.88</ele>
        <time>2020-05-21T19:42:22.000Z</time>
      </trkpt>
      <trkpt lat="48.731" lon="7.33279">
        <ele>258.85</ele>
        <time>2020-05-21T19:42:24.000Z</time>
      </trkpt>
      <trkpt lat="48.73105" lon="7.33274">
        <ele>257.92</ele>
        <time>2020-05-21T19:42:27.000Z</time>
      </trkpt>
      <trkpt lat="48.73108" lon="7.33268">
        <ele>257.76</ele>
        <time>2020-05-21T19:42:29.000Z</time>
      </trkpt>
      <trkpt lat="48.73108" lon="7.3326">
        <ele>254.47</ele>
        <time>2020-05-21T19:42:32.000Z</time>
      </trkpt>
      <trkpt lat="48.73112" lon="7.33255">
        <ele>254.95</ele>
        <time>2020-05-21T19:42:34.000Z</time>
      </trkpt>
      <trkpt lat="48.73118" lon="7.33251">
        <ele>254.89</ele>
        <time>2020-05-21T19:42:36.000Z</time>
      </trkpt>
      <trkpt lat="48.73122" lon="7.33246">
        <ele>257.39</ele>
        <time>2020-05-21T19:42:38.000Z</time>
      </trkpt>
      <trkpt lat="48.73127" lon="7.33241">
        <ele>255.49</ele>
        <time>2020-05-21T19:42:41.000Z</time>
      </trkpt>
      <trkpt lat="48.73129" lon="7.33231">
        <ele>251.99</ele>
        <time>2020-05-21T19:42:44.000Z</time>
      </trkpt>
      <trkpt lat="48.73133" lon="7.33225">
        <ele>255.14</ele>
        <time>2020-05-21T19:42:47.000Z</time>
      </trkpt>
      <trkpt lat="48.73134" lon="7.33218">
        <ele>251.47</ele>
        <time>2020-05-21T19:42:50.000Z</time>
      </trkpt>
      <trkpt lat="48.73134" lon="7.33209">
        <ele>258.14</ele>
        <time>2020-05-21T19:42:52.000Z</time>
      </trkpt>
      <trkpt lat="48.73139" lon="7.33203">
        <ele>259.7</ele>
        <time>2020-05-21T19:42:55.000Z</time>
      </trkpt>
      <trkpt lat="48.73142" lon="7.33197">
        <ele>259.22</ele>
        <time>2020-05-21T19:42:58.000Z</time>
      </trkpt>
      <trkpt lat="48.73147" lon="7.3319">
        <ele>262.16</ele>
        <time>2020-05-21T19:43:01.000Z</time>
      </trkpt>
      <trkpt lat="48.7315" lon="7.33184">
        <ele>262.03</ele>
        <time>2020-05-21T19:43:04.000Z</time>
      </trkpt>
      <trkpt lat="48.7315" lon="7.33176">
        <ele>266.06</ele>
        <time>2020-05-21T19:43:07.000Z</time>
      </trkpt>
      <trkpt lat="48.73156" lon="7.3318">
        <ele>270</ele>
        <time>2020-05-21T19:43:12.000Z</time>
      </trkpt>
      <trkpt lat="48.7316" lon="7.33184">
        <ele>271.87</ele>
        <time>2020-05-21T19:43:14.000Z</time>
      </trkpt>
      <trkpt lat="48.73165" lon="7.33187">
        <ele>275.53</ele>
        <time>2020-05-21T19:43:18.000Z</time>
      </trkpt>
      <trkpt lat="48.73166" lon="7.33229">
        <ele>275.84</ele>
        <time>2020-05-21T19:43:26.000Z</time>
      </trkpt>
      <trkpt lat="48.73167" lon="7.33239">
        <ele>275.65</ele>
        <time>2020-05-21T19:43:29.000Z</time>
      </trkpt>
      <trkpt lat="48.73168" lon="7.33248">
        <ele>277.43</ele>
        <time>2020-05-21T19:43:31.000Z</time>
      </trkpt>
      <trkpt lat="48.73168" lon="7.33256">
        <ele>276.9</ele>
        <time>2020-05-21T19:43:33.000Z</time>
      </trkpt>
      <trkpt lat="48.73167" lon="7.33264">
        <ele>275.44</ele>
        <time>2020-05-21T19:43:35.000Z</time>
      </trkpt>
      <trkpt lat="48.73168" lon="7.33271">
        <ele>275.68</ele>
        <time>2020-05-21T19:43:37.000Z</time>
      </trkpt>
      <trkpt lat="48.73169" lon="7.33278">
        <ele>277.06</ele>
        <time>2020-05-21T19:43:39.000Z</time>
      </trkpt>
      <trkpt lat="48.73169" lon="7.33288">
        <ele>278.01</ele>
        <time>2020-05-21T19:43:41.000Z</time>
      </trkpt>
      <trkpt lat="48.73169" lon="7.33298">
        <ele>277.74</ele>
        <time>2020-05-21T19:43:43.000Z</time>
      </trkpt>
      <trkpt lat="48.7317" lon="7.33309">
        <ele>274.03</ele>
        <time>2020-05-21T19:43:46.000Z</time>
      </trkpt>
      <trkpt lat="48.73173" lon="7.33315">
        <ele>273.56</ele>
        <time>2020-05-21T19:43:48.000Z</time>
      </trkpt>
      <trkpt lat="48.73177" lon="7.33323">
        <ele>274.14</ele>
        <time>2020-05-21T19:43:51.000Z</time>
      </trkpt>
      <trkpt lat="48.73182" lon="7.33331">
        <ele>276.49</ele>
        <time>2020-05-21T19:43:54.000Z</time>
      </trkpt>
      <trkpt lat="48.73183" lon="7.33339">
        <ele>272.49</ele>
        <time>2020-05-21T19:43:56.000Z</time>
      </trkpt>
      <trkpt lat="48.73187" lon="7.33348">
        <ele>274.75</ele>
        <time>2020-05-21T19:43:58.000Z</time>
      </trkpt>
      <trkpt lat="48.73193" lon="7.33354">
        <ele>271.8</ele>
        <time>2020-05-21T19:44:01.000Z</time>
      </trkpt>
      <trkpt lat="48.73196" lon="7.3336">
        <ele>271.85</ele>
        <time>2020-05-21T19:44:03.000Z</time>
      </trkpt>
      <trkpt lat="48.732" lon="7.33366">
        <ele>272.62</ele>
        <time>2020-05-21T19:44:05.000Z</time>
      </trkpt>
      <trkpt lat="48.73203" lon="7.33373">
        <ele>271.12</ele>
        <time>2020-05-21T19:44:07.000Z</time>
      </trkpt>
      <trkpt lat="48.73205" lon="7.3338">
        <ele>271.49</ele>
        <time>2020-05-21T19:44:09.000Z</time>
      </trkpt>
      <trkpt lat="48.7321" lon="7.33386">
        <ele>272.11</ele>
        <time>2020-05-21T19:44:11.000Z</time>
      </trkpt>
      <trkpt lat="48.73228" lon="7.33414">
        <ele>272</ele>
        <time>2020-05-21T19:44:18.000Z</time>
      </trkpt>
      <trkpt lat="48.73233" lon="7.3342">
        <ele>273.03</ele>
        <time>2020-05-21T19:44:20.000Z</time>
      </trkpt>
      <trkpt lat="48.73236" lon="7.33426">
        <ele>268.22</ele>
        <time>2020-05-21T19:44:22.000Z</time>
      </trkpt>
      <trkpt lat="48.73238" lon="7.33432">
        <ele>271.39</ele>
        <time>2020-05-21T19:44:24.000Z</time>
      </trkpt>
      <trkpt lat="48.73242" lon="7.3344">
        <ele>270.04</ele>
        <time>2020-05-21T19:44:26.000Z</time>
      </trkpt>
      <trkpt lat="48.73245" lon="7.33446">
        <ele>274.24</ele>
        <time>2020-05-21T19:44:29.000Z</time>
      </trkpt>
      <trkpt lat="48.73248" lon="7.33453">
        <ele>277.73</ele>
        <time>2020-05-21T19:44:32.000Z</time>
      </trkpt>
      <trkpt lat="48.73252" lon="7.33456">
        <ele>278.36</ele>
        <time>2020-05-21T19:44:34.000Z</time>
      </trkpt>
      <trkpt lat="48.73255" lon="7.33464">
        <ele>279.63</ele>
        <time>2020-05-21T19:44:36.000Z</time>
      </trkpt>
      <trkpt lat="48.73256" lon="7.33473">
        <ele>283.47</ele>
        <time>2020-05-21T19:44:38.000Z</time>
      </trkpt>
      <trkpt lat="48.73258" lon="7.33482">
        <ele>283.59</ele>
        <time>2020-05-21T19:44:41.000Z</time>
      </trkpt>
      <trkpt lat="48.73262" lon="7.33489">
        <ele>285.44</ele>
        <time>2020-05-21T19:44:45.000Z</time>
      </trkpt>
      <trkpt lat="48.73264" lon="7.33498">
        <ele>285.75</ele>
        <time>2020-05-21T19:44:47.000Z</time>
      </trkpt>
      <trkpt lat="48.73265" lon="7.33505">
        <ele>287.56</ele>
        <time>2020-05-21T19:44:50.000Z</time>
      </trkpt>
      <trkpt lat="48.73269" lon="7.33522">
        <ele>287.72</ele>
        <time>2020-05-21T19:44:54.000Z</time>
      </trkpt>
      <trkpt lat="48.7327" lon="7.3353">
        <ele>290.73</ele>
        <time>2020-05-21T19:44:56.000Z</time>
      </trkpt>
      <trkpt lat="48.73272" lon="7.33538">
        <ele>290.27</ele>
        <time>2020-05-21T19:44:58.000Z</time>
      </trkpt>
      <trkpt lat="48.73274" lon="7.33545">
        <ele>289.24</ele>
        <time>2020-05-21T19:45:01.000Z</time>
      </trkpt>
      <trkpt lat="48.73275" lon="7.33554">
        <ele>292.4</ele>
        <time>2020-05-21T19:45:04.000Z</time>
      </trkpt>
      <trkpt lat="48.73275" lon="7.33565">
        <ele>293.33</ele>
        <time>2020-05-21T19:45:07.000Z</time>
      </trkpt>
      <trkpt lat="48.73278" lon="7.33571">
        <ele>294.17</ele>
        <time>2020-05-21T19:45:09.000Z</time>
      </trkpt>
      <trkpt lat="48.7328" lon="7.33578">
        <ele>294.84</ele>
        <time>2020-05-21T19:45:12.000Z</time>
      </trkpt>
      <trkpt lat="48.73282" lon="7.33587">
        <ele>293.86</ele>
        <time>2020-05-21T19:45:15.000Z</time>
      </trkpt>
      <trkpt lat="48.73282" lon="7.33594">
        <ele>294.31</ele>
        <time>2020-05-21T19:45:17.000Z</time>
      </trkpt>
      <trkpt lat="48.73283" lon="7.33605">
        <ele>294.91</ele>
        <time>2020-05-21T19:45:20.000Z</time>
      </trkpt>
      <trkpt lat="48.73283" lon="7.33613">
        <ele>295.33</ele>
        <time>2020-05-21T19:45:22.000Z</time>
      </trkpt>
      <trkpt lat="48.73285" lon="7.33623">
        <ele>296.05</ele>
        <time>2020-05-21T19:45:25.000Z</time>
      </trkpt>
      <trkpt lat="48.73284" lon="7.3363">
        <ele>294.72</ele>
        <time>2020-05-21T19:45:28.000Z</time>
      </trkpt>
      <trkpt lat="48.73284" lon="7.33637">
        <ele>295.9</ele>
        <time>2020-05-21T19:45:31.000Z</time>
      </trkpt>
      <trkpt lat="48.73285" lon="7.33644">
        <ele>296.22</ele>
        <time>2020-05-21T19:45:33.000Z</time>
      </trkpt>
      <trkpt lat="48.73286" lon="7.33652">
        <ele>294.56</ele>
        <time>2020-05-21T19:45:35.000Z</time>
      </trkpt>
      <trkpt lat="48.73286" lon="7.3366">
        <ele>295.06</ele>
        <time>2020-05-21T19:45:37.000Z</time>
      </trkpt>
      <trkpt lat="48.73288" lon="7.33667">
        <ele>293.69</ele>
        <time>2020-05-21T19:45:39.000Z</time>
      </trkpt>
      <trkpt lat="48.73287" lon="7.33676">
        <ele>292.62</ele>
        <time>2020-05-21T19:45:42.000Z</time>
      </trkpt>
      <trkpt lat="48.73286" lon="7.33686">
        <ele>294.49</ele>
        <time>2020-05-21T19:45:45.000Z</time>
      </trkpt>
      <trkpt lat="48.73284" lon="7.33695">
        <ele>296.35</ele>
        <time>2020-05-21T19:45:48.000Z</time>
      </trkpt>
      <trkpt lat="48.73283" lon="7.33703">
        <ele>295.62</ele>
        <time>2020-05-21T19:45:50.000Z</time>
      </trkpt>
      <trkpt lat="48.73283" lon="7.33712">
        <ele>296.54</ele>
        <time>2020-05-21T19:45:52.000Z</time>
      </trkpt>
      <trkpt lat="48.73283" lon="7.33721">
        <ele>296.26</ele>
        <time>2020-05-21T19:45:55.000Z</time>
      </trkpt>
      <trkpt lat="48.73282" lon="7.3373">
        <ele>297.13</ele>
        <time>2020-05-21T19:45:58.000Z</time>
      </trkpt>
      <trkpt lat="48.73281" lon="7.33737">
        <ele>297.63</ele>
        <time>2020-05-21T19:46:00.000Z</time>
      </trkpt>
      <trkpt lat="48.73282" lon="7.33745">
        <ele>298.18</ele>
        <time>2020-05-21T19:46:03.000Z</time>
      </trkpt>
      <trkpt lat="48.73283" lon="7.33752">
        <ele>296.31</ele>
        <time>2020-05-21T19:46:05.000Z</time>
      </trkpt>
      <trkpt lat="48.73283" lon="7.3376">
        <ele>295.09</ele>
        <time>2020-05-21T19:46:07.000Z</time>
      </trkpt>
      <trkpt lat="48.73283" lon="7.33767">
        <ele>294.48</ele>
        <time>2020-05-21T19:46:09.000Z</time>
      </trkpt>
      <trkpt lat="48.73284" lon="7.33774">
        <ele>295.85</ele>
        <time>2020-05-21T19:46:11.000Z</time>
      </trkpt>
      <trkpt lat="48.73286" lon="7.3378">
        <ele>295.74</ele>
        <time>2020-05-21T19:46:13.000Z</time>
      </trkpt>
      <trkpt lat="48.73288" lon="7.33787">
        <ele>296.43</ele>
        <time>2020-05-21T19:46:15.000Z</time>
      </trkpt>
      <trkpt lat="48.73291" lon="7.33794">
        <ele>296.54</ele>
        <time>2020-05-21T19:46:18.000Z</time>
      </trkpt>
      <trkpt lat="48.73295" lon="7.33801">
        <ele>297.24</ele>
        <time>2020-05-21T19:46:21.000Z</time>
      </trkpt>
      <trkpt lat="48.73298" lon="7.33807">
        <ele>297.58</ele>
        <time>2020-05-21T19:46:24.000Z</time>
      </trkpt>
      <trkpt lat="48.73301" lon="7.33813">
        <ele>298.28</ele>
        <time>2020-05-21T19:46:27.000Z</time>
      </trkpt>
      <trkpt lat="48.73304" lon="7.3382">
        <ele>298.99</ele>
        <time>2020-05-21T19:46:30.000Z</time>
      </trkpt>
      <trkpt lat="48.73308" lon="7.33824">
        <ele>299</ele>
        <time>2020-05-21T19:46:33.000Z</time>
      </trkpt>
      <trkpt lat="48.73312" lon="7.33829">
        <ele>300.42</ele>
        <time>2020-05-21T19:46:36.000Z</time>
      </trkpt>
      <trkpt lat="48.73317" lon="7.33832">
        <ele>301.82</ele>
        <time>2020-05-21T19:46:39.000Z</time>
      </trkpt>
      <trkpt lat="48.73322" lon="7.33836">
        <ele>302.68</ele>
        <time>2020-05-21T19:46:41.000Z</time>
      </trkpt>
      <trkpt lat="48.73327" lon="7.3384">
        <ele>303.16</ele>
        <time>2020-05-21T19:46:43.000Z</time>
      </trkpt>
      <trkpt lat="48.73331" lon="7.33843">
        <ele>302.74</ele>
        <time>2020-05-21T19:46:45.000Z</time>
      </trkpt>
      <trkpt lat="48.73337" lon="7.33845">
        <ele>303.44</ele>
        <time>2020-05-21T19:46:49.000Z</time>
      </trkpt>
      <trkpt lat="48.73342" lon="7.33849">
        <ele>306.94</ele>
        <time>2020-05-21T19:46:52.000Z</time>
      </trkpt>
      <trkpt lat="48.73349" lon="7.33853">
        <ele>307.94</ele>
        <time>2020-05-21T19:46:55.000Z</time>
      </trkpt>
      <trkpt lat="48.73354" lon="7.33855">
        <ele>309.5</ele>
        <time>2020-05-21T19:46:57.000Z</time>
      </trkpt>
      <trkpt lat="48.73359" lon="7.33859">
        <ele>310.58</ele>
        <time>2020-05-21T19:46:59.000Z</time>
      </trkpt>
      <trkpt lat="48.73364" lon="7.33861">
        <ele>310.78</ele>
        <time>2020-05-21T19:47:01.000Z</time>
      </trkpt>
      <trkpt lat="48.7337" lon="7.33865">
        <ele>310.76</ele>
        <time>2020-05-21T19:47:03.000Z</time>
      </trkpt>
      <trkpt lat="48.73375" lon="7.33868">
        <ele>309.32</ele>
        <time>2020-05-21T19:47:05.000Z</time>
      </trkpt>
      <trkpt lat="48.73381" lon="7.33874">
        <ele>309.92</ele>
        <time>2020-05-21T19:47:08.000Z</time>
      </trkpt>
      <trkpt lat="48.73385" lon="7.3388">
        <ele>310.42</ele>
        <time>2020-05-21T19:47:10.000Z</time>
      </trkpt>
      <trkpt lat="48.73389" lon="7.33883">
        <ele>308.2</ele>
        <time>2020-05-21T19:47:12.000Z</time>
      </trkpt>
      <trkpt lat="48.73394" lon="7.33888">
        <ele>307.28</ele>
        <time>2020-05-21T19:47:14.000Z</time>
      </trkpt>
      <trkpt lat="48.73399" lon="7.33899">
        <ele>306.36</ele>
        <time>2020-05-21T19:47:16.000Z</time>
      </trkpt>
      <trkpt lat="48.73404" lon="7.33903">
        <ele>306.05</ele>
        <time>2020-05-21T19:47:17.000Z</time>
      </trkpt>
      <trkpt lat="48.73407" lon="7.33908">
        <ele>306.49</ele>
        <time>2020-05-21T19:47:18.000Z</time>
      </trkpt>
      <trkpt lat="48.73417" lon="7.33919">
        <ele>305.46</ele>
        <time>2020-05-21T19:47:20.000Z</time>
      </trkpt>
      <trkpt lat="48.73424" lon="7.33926">
        <ele>305.79</ele>
        <time>2020-05-21T19:47:22.000Z</time>
      </trkpt>
      <trkpt lat="48.73428" lon="7.33932">
        <ele>304.18</ele>
        <time>2020-05-21T19:47:23.000Z</time>
      </trkpt>
      <trkpt lat="48.73432" lon="7.33939">
        <ele>301.17</ele>
        <time>2020-05-21T19:47:24.000Z</time>
      </trkpt>
      <trkpt lat="48.73438" lon="7.33955">
        <ele>302.45</ele>
        <time>2020-05-21T19:47:26.000Z</time>
      </trkpt>
      <trkpt lat="48.73446" lon="7.33958">
        <ele>300.13</ele>
        <time>2020-05-21T19:47:28.000Z</time>
      </trkpt>
      <trkpt lat="48.73454" lon="7.33964">
        <ele>298.41</ele>
        <time>2020-05-21T19:47:30.000Z</time>
      </trkpt>
      <trkpt lat="48.7346" lon="7.33968">
        <ele>297.53</ele>
        <time>2020-05-21T19:47:31.000Z</time>
      </trkpt>
      <trkpt lat="48.73462" lon="7.33976">
        <ele>296.25</ele>
        <time>2020-05-21T19:47:32.000Z</time>
      </trkpt>
      <trkpt lat="48.73466" lon="7.33981">
        <ele>295.28</ele>
        <time>2020-05-21T19:47:33.000Z</time>
      </trkpt>
      <trkpt lat="48.7347" lon="7.33985">
        <ele>295.65</ele>
        <time>2020-05-21T19:47:34.000Z</time>
      </trkpt>
      <trkpt lat="48.73472" lon="7.33993">
        <ele>296.01</ele>
        <time>2020-05-21T19:47:35.000Z</time>
      </trkpt>
      <trkpt lat="48.73475" lon="7.33998">
        <ele>295.62</ele>
        <time>2020-05-21T19:47:36.000Z</time>
      </trkpt>
      <trkpt lat="48.73479" lon="7.34003">
        <ele>296.04</ele>
        <time>2020-05-21T19:47:37.000Z</time>
      </trkpt>
      <trkpt lat="48.73483" lon="7.34007">
        <ele>295.49</ele>
        <time>2020-05-21T19:47:38.000Z</time>
      </trkpt>
      <trkpt lat="48.73488" lon="7.34011">
        <ele>296.41</ele>
        <time>2020-05-21T19:47:39.000Z</time>
      </trkpt>
      <trkpt lat="48.73501" lon="7.3402">
        <ele>295.11</ele>
        <time>2020-05-21T19:47:41.000Z</time>
      </trkpt>
      <trkpt lat="48.73506" lon="7.3402">
        <ele>294.44</ele>
        <time>2020-05-21T19:47:42.000Z</time>
      </trkpt>
      <trkpt lat="48.7351" lon="7.34023">
        <ele>294.82</ele>
        <time>2020-05-21T19:47:43.000Z</time>
      </trkpt>
      <trkpt lat="48.73519" lon="7.34027">
        <ele>295.58</ele>
        <time>2020-05-21T19:47:45.000Z</time>
      </trkpt>
      <trkpt lat="48.73523" lon="7.34032">
        <ele>294.17</ele>
        <time>2020-05-21T19:47:46.000Z</time>
      </trkpt>
      <trkpt lat="48.73529" lon="7.3404">
        <ele>294.5</ele>
        <time>2020-05-21T19:47:48.000Z</time>
      </trkpt>
      <trkpt lat="48.73535" lon="7.34046">
        <ele>296.17</ele>
        <time>2020-05-21T19:47:50.000Z</time>
      </trkpt>
      <trkpt lat="48.73546" lon="7.34053">
        <ele>296</ele>
        <time>2020-05-21T19:47:52.000Z</time>
      </trkpt>
      <trkpt lat="48.73552" lon="7.34058">
        <ele>294.71</ele>
        <time>2020-05-21T19:47:53.000Z</time>
      </trkpt>
      <trkpt lat="48.73556" lon="7.34064">
        <ele>294.96</ele>
        <time>2020-05-21T19:47:54.000Z</time>
      </trkpt>
      <trkpt lat="48.73559" lon="7.34073">
        <ele>295.45</ele>
        <time>2020-05-21T19:47:55.000Z</time>
      </trkpt>
      <trkpt lat="48.73564" lon="7.34077">
        <ele>294.22</ele>
        <time>2020-05-21T19:47:56.000Z</time>
      </trkpt>
      <trkpt lat="48.73567" lon="7.34085">
        <ele>295.27</ele>
        <time>2020-05-21T19:47:57.000Z</time>
      </trkpt>
      <trkpt lat="48.73573" lon="7.34091">
        <ele>292.49</ele>
        <time>2020-05-21T19:47:59.000Z</time>
      </trkpt>
      <trkpt lat="48.73578" lon="7.34094">
        <ele>291.08</ele>
        <time>2020-05-21T19:48:00.000Z</time>
      </trkpt>
      <trkpt lat="48.7358" lon="7.34103">
        <ele>292.22</ele>
        <time>2020-05-21T19:48:01.000Z</time>
      </trkpt>
      <trkpt lat="48.73585" lon="7.34116">
        <ele>288.2</ele>
        <time>2020-05-21T19:48:03.000Z</time>
      </trkpt>
      <trkpt lat="48.73587" lon="7.34122">
        <ele>288.22</ele>
        <time>2020-05-21T19:48:04.000Z</time>
      </trkpt>
      <trkpt lat="48.73589" lon="7.34129">
        <ele>288.52</ele>
        <time>2020-05-21T19:48:05.000Z</time>
      </trkpt>
      <trkpt lat="48.73592" lon="7.34137">
        <ele>286.62</ele>
        <time>2020-05-21T19:48:06.000Z</time>
      </trkpt>
      <trkpt lat="48.73594" lon="7.34145">
        <ele>287.14</ele>
        <time>2020-05-21T19:48:07.000Z</time>
      </trkpt>
      <trkpt lat="48.73596" lon="7.34152">
        <ele>286</ele>
        <time>2020-05-21T19:48:08.000Z</time>
      </trkpt>
      <trkpt lat="48.73598" lon="7.34159">
        <ele>286.76</ele>
        <time>2020-05-21T19:48:09.000Z</time>
      </trkpt>
      <trkpt lat="48.73601" lon="7.34166">
        <ele>286.23</ele>
        <time>2020-05-21T19:48:10.000Z</time>
      </trkpt>
      <trkpt lat="48.73601" lon="7.34174">
        <ele>286.56</ele>
        <time>2020-05-21T19:48:11.000Z</time>
      </trkpt>
      <trkpt lat="48.73604" lon="7.34185">
        <ele>286.56</ele>
        <time>2020-05-21T19:48:12.000Z</time>
      </trkpt>
      <trkpt lat="48.73606" lon="7.34195">
        <ele>284.93</ele>
        <time>2020-05-21T19:48:13.000Z</time>
      </trkpt>
      <trkpt lat="48.7361" lon="7.342">
        <ele>284.27</ele>
        <time>2020-05-21T19:48:14.000Z</time>
      </trkpt>
      <trkpt lat="48.73613" lon="7.34209">
        <ele>282.27</ele>
        <time>2020-05-21T19:48:15.000Z</time>
      </trkpt>
      <trkpt lat="48.73615" lon="7.34217">
        <ele>282.35</ele>
        <time>2020-05-21T19:48:16.000Z</time>
      </trkpt>
      <trkpt lat="48.73618" lon="7.34225">
        <ele>283.25</ele>
        <time>2020-05-21T19:48:17.000Z</time>
      </trkpt>
      <trkpt lat="48.7362" lon="7.34232">
        <ele>282.67</ele>
        <time>2020-05-21T19:48:18.000Z</time>
      </trkpt>
      <trkpt lat="48.73624" lon="7.34238">
        <ele>281</ele>
        <time>2020-05-21T19:48:19.000Z</time>
      </trkpt>
      <trkpt lat="48.73628" lon="7.34249">
        <ele>280.89</ele>
        <time>2020-05-21T19:48:21.000Z</time>
      </trkpt>
      <trkpt lat="48.73631" lon="7.34256">
        <ele>280.25</ele>
        <time>2020-05-21T19:48:22.000Z</time>
      </trkpt>
      <trkpt lat="48.73635" lon="7.34262">
        <ele>279.84</ele>
        <time>2020-05-21T19:48:23.000Z</time>
      </trkpt>
      <trkpt lat="48.73639" lon="7.34267">
        <ele>279.64</ele>
        <time>2020-05-21T19:48:24.000Z</time>
      </trkpt>
      <trkpt lat="48.73643" lon="7.34272">
        <ele>279.43</ele>
        <time>2020-05-21T19:48:25.000Z</time>
      </trkpt>
      <trkpt lat="48.73647" lon="7.34284">
        <ele>279.55</ele>
        <time>2020-05-21T19:48:27.000Z</time>
      </trkpt>
      <trkpt lat="48.73651" lon="7.34288">
        <ele>278.34</ele>
        <time>2020-05-21T19:48:28.000Z</time>
      </trkpt>
      <trkpt lat="48.73655" lon="7.34292">
        <ele>277.25</ele>
        <time>2020-05-21T19:48:29.000Z</time>
      </trkpt>
      <trkpt lat="48.7366" lon="7.34303">
        <ele>275.04</ele>
        <time>2020-05-21T19:48:31.000Z</time>
      </trkpt>
      <trkpt lat="48.73663" lon="7.34308">
        <ele>274.87</ele>
        <time>2020-05-21T19:48:32.000Z</time>
      </trkpt>
      <trkpt lat="48.73669" lon="7.34318">
        <ele>273.27</ele>
        <time>2020-05-21T19:48:34.000Z</time>
      </trkpt>
      <trkpt lat="48.73673" lon="7.34323">
        <ele>272.55</ele>
        <time>2020-05-21T19:48:35.000Z</time>
      </trkpt>
      <trkpt lat="48.73678" lon="7.34332">
        <ele>271.47</ele>
        <time>2020-05-21T19:48:37.000Z</time>
      </trkpt>
      <trkpt lat="48.73685" lon="7.34336">
        <ele>272.3</ele>
        <time>2020-05-21T19:48:39.000Z</time>
      </trkpt>
      <trkpt lat="48.73693" lon="7.34338">
        <ele>270.71</ele>
        <time>2020-05-21T19:48:41.000Z</time>
      </trkpt>
      <trkpt lat="48.73704" lon="7.34343">
        <ele>268.15</ele>
        <time>2020-05-21T19:48:43.000Z</time>
      </trkpt>
      <trkpt lat="48.73709" lon="7.34346">
        <ele>266.02</ele>
        <time>2020-05-21T19:48:44.000Z</time>
      </trkpt>
      <trkpt lat="48.73714" lon="7.34345">
        <ele>265.73</ele>
        <time>2020-05-21T19:48:45.000Z</time>
      </trkpt>
      <trkpt lat="48.73722" lon="7.34353">
        <ele>265.75</ele>
        <time>2020-05-21T19:48:47.000Z</time>
      </trkpt>
      <trkpt lat="48.73726" lon="7.34358">
        <ele>264.88</ele>
        <time>2020-05-21T19:48:48.000Z</time>
      </trkpt>
      <trkpt lat="48.73737" lon="7.34372">
        <ele>264.02</ele>
        <time>2020-05-21T19:48:50.000Z</time>
      </trkpt>
      <trkpt lat="48.73741" lon="7.34379">
        <ele>263.42</ele>
        <time>2020-05-21T19:48:51.000Z</time>
      </trkpt>
      <trkpt lat="48.73747" lon="7.34383">
        <ele>262.14</ele>
        <time>2020-05-21T19:48:52.000Z</time>
      </trkpt>
      <trkpt lat="48.7375" lon="7.34389">
        <ele>262.07</ele>
        <time>2020-05-21T19:48:53.000Z</time>
      </trkpt>
      <trkpt lat="48.73753" lon="7.34395">
        <ele>262.7</ele>
        <time>2020-05-21T19:48:54.000Z</time>
      </trkpt>
      <trkpt lat="48.73755" lon="7.34406">
        <ele>265.67</ele>
        <time>2020-05-21T19:48:56.000Z</time>
      </trkpt>
      <trkpt lat="48.73759" lon="7.34411">
        <ele>266.3</ele>
        <time>2020-05-21T19:48:57.000Z</time>
      </trkpt>
      <trkpt lat="48.73763" lon="7.3442">
        <ele>265.24</ele>
        <time>2020-05-21T19:48:59.000Z</time>
      </trkpt>
      <trkpt lat="48.73765" lon="7.34428">
        <ele>268.5</ele>
        <time>2020-05-21T19:49:02.000Z</time>
      </trkpt>
      <trkpt lat="48.73764" lon="7.34436">
        <ele>265.58</ele>
        <time>2020-05-21T19:49:05.000Z</time>
      </trkpt>
      <trkpt lat="48.73761" lon="7.34445">
        <ele>264.2</ele>
        <time>2020-05-21T19:49:07.000Z</time>
      </trkpt>
      <trkpt lat="48.73765" lon="7.3446">
        <ele>261.9</ele>
        <time>2020-05-21T19:49:09.000Z</time>
      </trkpt>
      <trkpt lat="48.7377" lon="7.34486">
        <ele>261.17</ele>
        <time>2020-05-21T19:49:12.000Z</time>
      </trkpt>
      <trkpt lat="48.7377" lon="7.34493">
        <ele>257.83</ele>
        <time>2020-05-21T19:49:14.000Z</time>
      </trkpt>
      <trkpt lat="48.73774" lon="7.34499">
        <ele>257.46</ele>
        <time>2020-05-21T19:49:16.000Z</time>
      </trkpt>
      <trkpt lat="48.73777" lon="7.34507">
        <ele>257.5</ele>
        <time>2020-05-21T19:49:18.000Z</time>
      </trkpt>
      <trkpt lat="48.73785" lon="7.3452">
        <ele>257.1</ele>
        <time>2020-05-21T19:49:21.000Z</time>
      </trkpt>
      <trkpt lat="48.73788" lon="7.34526">
        <ele>255.62</ele>
        <time>2020-05-21T19:49:23.000Z</time>
      </trkpt>
      <trkpt lat="48.73791" lon="7.34535">
        <ele>254.07</ele>
        <time>2020-05-21T19:49:26.000Z</time>
      </trkpt>
      <trkpt lat="48.73796" lon="7.34539">
        <ele>250.21</ele>
        <time>2020-05-21T19:49:29.000Z</time>
      </trkpt>
      <trkpt lat="48.73801" lon="7.34543">
        <ele>248.08</ele>
        <time>2020-05-21T19:49:32.000Z</time>
      </trkpt>
      <trkpt lat="48.73805" lon="7.34546">
        <ele>246.22</ele>
        <time>2020-05-21T19:49:35.000Z</time>
      </trkpt>
      <trkpt lat="48.73806" lon="7.34553">
        <ele>241.95</ele>
        <time>2020-05-21T19:49:44.000Z</time>
      </trkpt>
      <trkpt lat="48.73807" lon="7.3456">
        <ele>239.12</ele>
        <time>2020-05-21T19:49:52.000Z</time>
      </trkpt>
      <trkpt lat="48.73812" lon="7.34567">
        <ele>238.73</ele>
        <time>2020-05-21T19:49:59.000Z</time>
      </trkpt>
      <trkpt lat="48.73817" lon="7.34573">
        <ele>237.22</ele>
        <time>2020-05-21T19:50:01.000Z</time>
      </trkpt>
      <trkpt lat="48.73822" lon="7.34579">
        <ele>237.1</ele>
        <time>2020-05-21T19:50:03.000Z</time>
      </trkpt>
      <trkpt lat="48.73828" lon="7.34586">
        <ele>237.1</ele>
        <time>2020-05-21T19:50:05.000Z</time>
      </trkpt>
      <trkpt lat="48.73834" lon="7.34593">
        <ele>236.87</ele>
        <time>2020-05-21T19:50:07.000Z</time>
      </trkpt>
      <trkpt lat="48.73839" lon="7.34598">
        <ele>236.46</ele>
        <time>2020-05-21T19:50:09.000Z</time>
      </trkpt>
      <trkpt lat="48.73844" lon="7.34602">
        <ele>237.12</ele>
        <time>2020-05-21T19:50:11.000Z</time>
      </trkpt>
      <trkpt lat="48.7385" lon="7.34603">
        <ele>237.36</ele>
        <time>2020-05-21T19:50:13.000Z</time>
      </trkpt>
      <trkpt lat="48.73855" lon="7.346">
        <ele>237.07</ele>
        <time>2020-05-21T19:50:15.000Z</time>
      </trkpt>
      <trkpt lat="48.73857" lon="7.34592">
        <ele>237.28</ele>
        <time>2020-05-21T19:50:17.000Z</time>
      </trkpt>
      <trkpt lat="48.73856" lon="7.34581">
        <ele>238.16</ele>
        <time>2020-05-21T19:50:19.000Z</time>
      </trkpt>
      <trkpt lat="48.73854" lon="7.3457">
        <ele>238.4</ele>
        <time>2020-05-21T19:50:21.000Z</time>
      </trkpt>
      <trkpt lat="48.73852" lon="7.3456">
        <ele>238.62</ele>
        <time>2020-05-21T19:50:23.000Z</time>
      </trkpt>
      <trkpt lat="48.7385" lon="7.34552">
        <ele>238.77</ele>
        <time>2020-05-21T19:50:25.000Z</time>
      </trkpt>
      <trkpt lat="48.73848" lon="7.34543">
        <ele>238.73</ele>
        <time>2020-05-21T19:50:27.000Z</time>
      </trkpt>
      <trkpt lat="48.73846" lon="7.34533">
        <ele>239.12</ele>
        <time>2020-05-21T19:50:29.000Z</time>
      </trkpt>
      <trkpt lat="48.73844" lon="7.34524">
        <ele>239.82</ele>
        <time>2020-05-21T19:50:31.000Z</time>
      </trkpt>
      <trkpt lat="48.73843" lon="7.34515">
        <ele>240.14</ele>
        <time>2020-05-21T19:50:33.000Z</time>
      </trkpt>
      <trkpt lat="48.73843" lon="7.34507">
        <ele>242.58</ele>
        <time>2020-05-21T19:50:35.000Z</time>
      </trkpt>
      <trkpt lat="48.73843" lon="7.34498">
        <ele>242.66</ele>
        <time>2020-05-21T19:50:37.000Z</time>
      </trkpt>
      <trkpt lat="48.73842" lon="7.3449">
        <ele>243.66</ele>
        <time>2020-05-21T19:50:39.000Z</time>
      </trkpt>
      <trkpt lat="48.73839" lon="7.34482">
        <ele>245.29</ele>
        <time>2020-05-21T19:50:41.000Z</time>
      </trkpt>
      <trkpt lat="48.73837" lon="7.34471">
        <ele>245.2</ele>
        <time>2020-05-21T19:50:43.000Z</time>
      </trkpt>
      <trkpt lat="48.73835" lon="7.34463">
        <ele>243.87</ele>
        <time>2020-05-21T19:50:45.000Z</time>
      </trkpt>
      <trkpt lat="48.73834" lon="7.34456">
        <ele>245.66</ele>
        <time>2020-05-21T19:50:47.000Z</time>
      </trkpt>
      <trkpt lat="48.73832" lon="7.34447">
        <ele>248.35</ele>
        <time>2020-05-21T19:50:50.000Z</time>
      </trkpt>
      <trkpt lat="48.73831" lon="7.34439">
        <ele>249.33</ele>
        <time>2020-05-21T19:50:52.000Z</time>
      </trkpt>
      <trkpt lat="48.73831" lon="7.34431">
        <ele>250.46</ele>
        <time>2020-05-21T19:50:54.000Z</time>
      </trkpt>
      <trkpt lat="48.73832" lon="7.34424">
        <ele>250.58</ele>
        <time>2020-05-21T19:50:56.000Z</time>
      </trkpt>
      <trkpt lat="48.73834" lon="7.34416">
        <ele>249.67</ele>
        <time>2020-05-21T19:50:58.000Z</time>
      </trkpt>
      <trkpt lat="48.73836" lon="7.34408">
        <ele>249.72</ele>
        <time>2020-05-21T19:51:00.000Z</time>
      </trkpt>
      <trkpt lat="48.73838" lon="7.344">
        <ele>247.63</ele>
        <time>2020-05-21T19:51:02.000Z</time>
      </trkpt>
      <trkpt lat="48.73839" lon="7.34393">
        <ele>249.36</ele>
        <time>2020-05-21T19:51:04.000Z</time>
      </trkpt>
      <trkpt lat="48.7384" lon="7.34386">
        <ele>248.77</ele>
        <time>2020-05-21T19:51:06.000Z</time>
      </trkpt>
      <trkpt lat="48.73841" lon="7.34375">
        <ele>252.79</ele>
        <time>2020-05-21T19:51:09.000Z</time>
      </trkpt>
      <trkpt lat="48.7384" lon="7.34368">
        <ele>253.46</ele>
        <time>2020-05-21T19:51:11.000Z</time>
      </trkpt>
      <trkpt lat="48.7384" lon="7.34359">
        <ele>254.9</ele>
        <time>2020-05-21T19:51:14.000Z</time>
      </trkpt>
      <trkpt lat="48.7384" lon="7.34349">
        <ele>253.45</ele>
        <time>2020-05-21T19:51:17.000Z</time>
      </trkpt>
      <trkpt lat="48.73841" lon="7.34339">
        <ele>253.07</ele>
        <time>2020-05-21T19:51:19.000Z</time>
      </trkpt>
      <trkpt lat="48.73842" lon="7.3433">
        <ele>254.22</ele>
        <time>2020-05-21T19:51:21.000Z</time>
      </trkpt>
      <trkpt lat="48.73843" lon="7.34323">
        <ele>254.93</ele>
        <time>2020-05-21T19:51:23.000Z</time>
      </trkpt>
      <trkpt lat="48.73843" lon="7.34315">
        <ele>254.96</ele>
        <time>2020-05-21T19:51:25.000Z</time>
      </trkpt>
      <trkpt lat="48.73844" lon="7.34307">
        <ele>256.96</ele>
        <time>2020-05-21T19:51:27.000Z</time>
      </trkpt>
      <trkpt lat="48.73845" lon="7.343">
        <ele>257.68</ele>
        <time>2020-05-21T19:51:29.000Z</time>
      </trkpt>
      <trkpt lat="48.73846" lon="7.34292">
        <ele>255.59</ele>
        <time>2020-05-21T19:51:31.000Z</time>
      </trkpt>
      <trkpt lat="48.73848" lon="7.34286">
        <ele>254.89</ele>
        <time>2020-05-21T19:51:33.000Z</time>
      </trkpt>
      <trkpt lat="48.7385" lon="7.34278">
        <ele>253</ele>
        <time>2020-05-21T19:51:35.000Z</time>
      </trkpt>
      <trkpt lat="48.73851" lon="7.34269">
        <ele>252.07</ele>
        <time>2020-05-21T19:51:37.000Z</time>
      </trkpt>
      <trkpt lat="48.7385" lon="7.34262">
        <ele>251.11</ele>
        <time>2020-05-21T19:51:39.000Z</time>
      </trkpt>
      <trkpt lat="48.73849" lon="7.34254">
        <ele>252.55</ele>
        <time>2020-05-21T19:51:41.000Z</time>
      </trkpt>
      <trkpt lat="48.73848" lon="7.34247">
        <ele>253.07</ele>
        <time>2020-05-21T19:51:43.000Z</time>
      </trkpt>
      <trkpt lat="48.73846" lon="7.34239">
        <ele>256.73</ele>
        <time>2020-05-21T19:51:46.000Z</time>
      </trkpt>
      <trkpt lat="48.73844" lon="7.34232">
        <ele>259.9</ele>
        <time>2020-05-21T19:51:49.000Z</time>
      </trkpt>
      <trkpt lat="48.73842" lon="7.34224">
        <ele>260.51</ele>
        <time>2020-05-21T19:51:52.000Z</time>
      </trkpt>
      <trkpt lat="48.73841" lon="7.34216">
        <ele>263.09</ele>
        <time>2020-05-21T19:51:55.000Z</time>
      </trkpt>
      <trkpt lat="48.73839" lon="7.34209">
        <ele>263.12</ele>
        <time>2020-05-21T19:51:58.000Z</time>
      </trkpt>
      <trkpt lat="48.73837" lon="7.34201">
        <ele>264.48</ele>
        <time>2020-05-21T19:52:01.000Z</time>
      </trkpt>
      <trkpt lat="48.73837" lon="7.34195">
        <ele>265.48</ele>
        <time>2020-05-21T19:52:04.000Z</time>
      </trkpt>
      <trkpt lat="48.73836" lon="7.34185">
        <ele>266.02</ele>
        <time>2020-05-21T19:52:07.000Z</time>
      </trkpt>
      <trkpt lat="48.73835" lon="7.34176">
        <ele>263.94</ele>
        <time>2020-05-21T19:52:10.000Z</time>
      </trkpt>
      <trkpt lat="48.73834" lon="7.34167">
        <ele>262.44</ele>
        <time>2020-05-21T19:52:13.000Z</time>
      </trkpt>
      <trkpt lat="48.73833" lon="7.3416">
        <ele>262.75</ele>
        <time>2020-05-21T19:52:15.000Z</time>
      </trkpt>
      <trkpt lat="48.73834" lon="7.34151">
        <ele>264.31</ele>
        <time>2020-05-21T19:52:18.000Z</time>
      </trkpt>
      <trkpt lat="48.73833" lon="7.34143">
        <ele>265.6</ele>
        <time>2020-05-21T19:52:21.000Z</time>
      </trkpt>
      <trkpt lat="48.73834" lon="7.34134">
        <ele>265.57</ele>
        <time>2020-05-21T19:52:24.000Z</time>
      </trkpt>
      <trkpt lat="48.73833" lon="7.34126">
        <ele>265.15</ele>
        <time>2020-05-21T19:52:26.000Z</time>
      </trkpt>
      <trkpt lat="48.73833" lon="7.34118">
        <ele>264.96</ele>
        <time>2020-05-21T19:52:28.000Z</time>
      </trkpt>
      <trkpt lat="48.73832" lon="7.34108">
        <ele>264.4</ele>
        <time>2020-05-21T19:52:31.000Z</time>
      </trkpt>
      <trkpt lat="48.73833" lon="7.34101">
        <ele>263.15</ele>
        <time>2020-05-21T19:52:33.000Z</time>
      </trkpt>
      <trkpt lat="48.73835" lon="7.34092">
        <ele>264.08</ele>
        <time>2020-05-21T19:52:36.000Z</time>
      </trkpt>
      <trkpt lat="48.73838" lon="7.34085">
        <ele>263.74</ele>
        <time>2020-05-21T19:52:39.000Z</time>
      </trkpt>
      <trkpt lat="48.73839" lon="7.34076">
        <ele>269.18</ele>
        <time>2020-05-21T19:52:43.000Z</time>
      </trkpt>
      <trkpt lat="48.7384" lon="7.34067">
        <ele>270.61</ele>
        <time>2020-05-21T19:52:46.000Z</time>
      </trkpt>
      <trkpt lat="48.7384" lon="7.34059">
        <ele>268.08</ele>
        <time>2020-05-21T19:52:48.000Z</time>
      </trkpt>
      <trkpt lat="48.7384" lon="7.34051">
        <ele>266.76</ele>
        <time>2020-05-21T19:52:51.000Z</time>
      </trkpt>
      <trkpt lat="48.7384" lon="7.34043">
        <ele>269.31</ele>
        <time>2020-05-21T19:52:54.000Z</time>
      </trkpt>
      <trkpt lat="48.73841" lon="7.34034">
        <ele>271.24</ele>
        <time>2020-05-21T19:52:57.000Z</time>
      </trkpt>
      <trkpt lat="48.73843" lon="7.34025">
        <ele>270.89</ele>
        <time>2020-05-21T19:53:00.000Z</time>
      </trkpt>
      <trkpt lat="48.73845" lon="7.34018">
        <ele>272.77</ele>
        <time>2020-05-21T19:53:02.000Z</time>
      </trkpt>
      <trkpt lat="48.73846" lon="7.3401">
        <ele>271.85</ele>
        <time>2020-05-21T19:53:04.000Z</time>
      </trkpt>
      <trkpt lat="48.7385" lon="7.33991">
        <ele>269.08</ele>
        <time>2020-05-21T19:53:08.000Z</time>
      </trkpt>
      <trkpt lat="48.73853" lon="7.33984">
        <ele>269.67</ele>
        <time>2020-05-21T19:53:10.000Z</time>
      </trkpt>
      <trkpt lat="48.73856" lon="7.33932">
        <ele>267.27</ele>
        <time>2020-05-21T19:53:20.000Z</time>
      </trkpt>
      <trkpt lat="48.73856" lon="7.33921">
        <ele>268.05</ele>
        <time>2020-05-21T19:53:22.000Z</time>
      </trkpt>
      <trkpt lat="48.73856" lon="7.33914">
        <ele>265.46</ele>
        <time>2020-05-21T19:53:25.000Z</time>
      </trkpt>
      <trkpt lat="48.7386" lon="7.33918">
        <ele>265.46</ele>
        <time>2020-05-21T19:53:30.000Z</time>
      </trkpt>
      <trkpt lat="48.73863" lon="7.33924">
        <ele>266</ele>
        <time>2020-05-21T19:53:35.000Z</time>
      </trkpt>
      <trkpt lat="48.73863" lon="7.33931">
        <ele>265.09</ele>
        <time>2020-05-21T19:53:47.000Z</time>
      </trkpt>
      <trkpt lat="48.73865" lon="7.3394">
        <ele>266.04</ele>
        <time>2020-05-21T19:53:50.000Z</time>
      </trkpt>
      <trkpt lat="48.73867" lon="7.33946">
        <ele>265.42</ele>
        <time>2020-05-21T19:53:52.000Z</time>
      </trkpt>
      <trkpt lat="48.7387" lon="7.33953">
        <ele>267.24</ele>
        <time>2020-05-21T19:53:54.000Z</time>
      </trkpt>
      <trkpt lat="48.73876" lon="7.33956">
        <ele>267.62</ele>
        <time>2020-05-21T19:53:57.000Z</time>
      </trkpt>
      <trkpt lat="48.73882" lon="7.33956">
        <ele>268.72</ele>
        <time>2020-05-21T19:54:02.000Z</time>
      </trkpt>
      <trkpt lat="48.73886" lon="7.3396">
        <ele>272.53</ele>
        <time>2020-05-21T19:54:05.000Z</time>
      </trkpt>
      <trkpt lat="48.73888" lon="7.33967">
        <ele>270.57</ele>
        <time>2020-05-21T19:54:08.000Z</time>
      </trkpt>
      <trkpt lat="48.7389" lon="7.33974">
        <ele>268.61</ele>
        <time>2020-05-21T19:54:18.000Z</time>
      </trkpt>
      <trkpt lat="48.73895" lon="7.33981">
        <ele>260.82</ele>
        <time>2020-05-21T19:54:22.000Z</time>
      </trkpt>
      <trkpt lat="48.73896" lon="7.33991">
        <ele>259.66</ele>
        <time>2020-05-21T19:54:24.000Z</time>
      </trkpt>
      <trkpt lat="48.73898" lon="7.33999">
        <ele>258.64</ele>
        <time>2020-05-21T19:54:26.000Z</time>
      </trkpt>
      <trkpt lat="48.739" lon="7.34007">
        <ele>259.53</ele>
        <time>2020-05-21T19:54:28.000Z</time>
      </trkpt>
      <trkpt lat="48.73902" lon="7.34016">
        <ele>259.48</ele>
        <time>2020-05-21T19:54:30.000Z</time>
      </trkpt>
      <trkpt lat="48.73904" lon="7.34026">
        <ele>258.43</ele>
        <time>2020-05-21T19:54:32.000Z</time>
      </trkpt>
      <trkpt lat="48.73906" lon="7.34036">
        <ele>257.41</ele>
        <time>2020-05-21T19:54:34.000Z</time>
      </trkpt>
      <trkpt lat="48.73907" lon="7.34046">
        <ele>256.97</ele>
        <time>2020-05-21T19:54:36.000Z</time>
      </trkpt>
      <trkpt lat="48.73908" lon="7.34058">
        <ele>257.32</ele>
        <time>2020-05-21T19:54:38.000Z</time>
      </trkpt>
      <trkpt lat="48.73908" lon="7.34068">
        <ele>256.79</ele>
        <time>2020-05-21T19:54:40.000Z</time>
      </trkpt>
      <trkpt lat="48.7391" lon="7.34079">
        <ele>255.67</ele>
        <time>2020-05-21T19:54:42.000Z</time>
      </trkpt>
      <trkpt lat="48.73912" lon="7.34091">
        <ele>253.18</ele>
        <time>2020-05-21T19:54:44.000Z</time>
      </trkpt>
      <trkpt lat="48.73914" lon="7.34101">
        <ele>249.67</ele>
        <time>2020-05-21T19:54:46.000Z</time>
      </trkpt>
      <trkpt lat="48.73916" lon="7.34112">
        <ele>248.24</ele>
        <time>2020-05-21T19:54:48.000Z</time>
      </trkpt>
      <trkpt lat="48.73917" lon="7.3413">
        <ele>248.44</ele>
        <time>2020-05-21T19:54:50.000Z</time>
      </trkpt>
      <trkpt lat="48.73917" lon="7.34138">
        <ele>248.33</ele>
        <time>2020-05-21T19:54:51.000Z</time>
      </trkpt>
      <trkpt lat="48.73918" lon="7.34146">
        <ele>248.42</ele>
        <time>2020-05-21T19:54:52.000Z</time>
      </trkpt>
      <trkpt lat="48.73919" lon="7.34153">
        <ele>247.96</ele>
        <time>2020-05-21T19:54:53.000Z</time>
      </trkpt>
      <trkpt lat="48.73919" lon="7.34161">
        <ele>248.32</ele>
        <time>2020-05-21T19:54:54.000Z</time>
      </trkpt>
      <trkpt lat="48.73919" lon="7.34168">
        <ele>248.57</ele>
        <time>2020-05-21T19:54:55.000Z</time>
      </trkpt>
      <trkpt lat="48.73919" lon="7.34175">
        <ele>249.42</ele>
        <time>2020-05-21T19:54:56.000Z</time>
      </trkpt>
      <trkpt lat="48.73919" lon="7.34182">
        <ele>249.66</ele>
        <time>2020-05-21T19:54:57.000Z</time>
      </trkpt>
      <trkpt lat="48.73918" lon="7.34194">
        <ele>252.63</ele>
        <time>2020-05-21T19:54:59.000Z</time>
      </trkpt>
      <trkpt lat="48.73916" lon="7.34205">
        <ele>252.79</ele>
        <time>2020-05-21T19:55:01.000Z</time>
      </trkpt>
      <trkpt lat="48.73916" lon="7.34217">
        <ele>252.89</ele>
        <time>2020-05-21T19:55:03.000Z</time>
      </trkpt>
      <trkpt lat="48.73916" lon="7.34231">
        <ele>253.45</ele>
        <time>2020-05-21T19:55:05.000Z</time>
      </trkpt>
      <trkpt lat="48.73918" lon="7.34242">
        <ele>252.36</ele>
        <time>2020-05-21T19:55:07.000Z</time>
      </trkpt>
      <trkpt lat="48.7392" lon="7.34256">
        <ele>251.65</ele>
        <time>2020-05-21T19:55:09.000Z</time>
      </trkpt>
      <trkpt lat="48.73922" lon="7.34263">
        <ele>252.75</ele>
        <time>2020-05-21T19:55:10.000Z</time>
      </trkpt>
      <trkpt lat="48.73927" lon="7.34266">
        <ele>252.16</ele>
        <time>2020-05-21T19:55:17.000Z</time>
      </trkpt>
      <trkpt lat="48.73928" lon="7.34258">
        <ele>253.13</ele>
        <time>2020-05-21T19:55:22.000Z</time>
      </trkpt>
      <trkpt lat="48.73926" lon="7.34248">
        <ele>252.83</ele>
        <time>2020-05-21T19:55:25.000Z</time>
      </trkpt>
      <trkpt lat="48.73924" lon="7.34237">
        <ele>254.94</ele>
        <time>2020-05-21T19:55:27.000Z</time>
      </trkpt>
      <trkpt lat="48.73924" lon="7.34229">
        <ele>258</ele>
        <time>2020-05-21T19:55:29.000Z</time>
      </trkpt>
      <trkpt lat="48.73924" lon="7.3422">
        <ele>258.53</ele>
        <time>2020-05-21T19:55:31.000Z</time>
      </trkpt>
      <trkpt lat="48.73923" lon="7.34214">
        <ele>257</ele>
        <time>2020-05-21T19:55:33.000Z</time>
      </trkpt>
      <trkpt lat="48.73923" lon="7.34206">
        <ele>256.96</ele>
        <time>2020-05-21T19:55:35.000Z</time>
      </trkpt>
      <trkpt lat="48.73923" lon="7.34197">
        <ele>256.82</ele>
        <time>2020-05-21T19:55:37.000Z</time>
      </trkpt>
      <trkpt lat="48.73924" lon="7.34189">
        <ele>255.61</ele>
        <time>2020-05-21T19:55:39.000Z</time>
      </trkpt>
      <trkpt lat="48.73925" lon="7.34181">
        <ele>255.67</ele>
        <time>2020-05-21T19:55:41.000Z</time>
      </trkpt>
      <trkpt lat="48.73925" lon="7.34172">
        <ele>255.54</ele>
        <time>2020-05-21T19:55:43.000Z</time>
      </trkpt>
      <trkpt lat="48.73924" lon="7.34165">
        <ele>256.45</ele>
        <time>2020-05-21T19:55:45.000Z</time>
      </trkpt>
      <trkpt lat="48.73924" lon="7.34156">
        <ele>257.07</ele>
        <time>2020-05-21T19:55:47.000Z</time>
      </trkpt>
      <trkpt lat="48.73923" lon="7.34147">
        <ele>256.04</ele>
        <time>2020-05-21T19:55:49.000Z</time>
      </trkpt>
      <trkpt lat="48.73924" lon="7.3414">
        <ele>255.55</ele>
        <time>2020-05-21T19:55:51.000Z</time>
      </trkpt>
      <trkpt lat="48.73926" lon="7.34131">
        <ele>254.1</ele>
        <time>2020-05-21T19:55:54.000Z</time>
      </trkpt>
      <trkpt lat="48.73926" lon="7.34123">
        <ele>255.88</ele>
        <time>2020-05-21T19:55:56.000Z</time>
      </trkpt>
      <trkpt lat="48.73926" lon="7.34114">
        <ele>255.72</ele>
        <time>2020-05-21T19:55:58.000Z</time>
      </trkpt>
      <trkpt lat="48.73926" lon="7.34106">
        <ele>256.47</ele>
        <time>2020-05-21T19:56:01.000Z</time>
      </trkpt>
      <trkpt lat="48.73927" lon="7.34097">
        <ele>258.6</ele>
        <time>2020-05-21T19:56:04.000Z</time>
      </trkpt>
      <trkpt lat="48.73926" lon="7.34089">
        <ele>260.6</ele>
        <time>2020-05-21T19:56:07.000Z</time>
      </trkpt>
      <trkpt lat="48.73927" lon="7.34082">
        <ele>262.59</ele>
        <time>2020-05-21T19:56:10.000Z</time>
      </trkpt>
      <trkpt lat="48.73927" lon="7.34074">
        <ele>262.33</ele>
        <time>2020-05-21T19:56:12.000Z</time>
      </trkpt>
      <trkpt lat="48.73929" lon="7.34067">
        <ele>263.48</ele>
        <time>2020-05-21T19:56:14.000Z</time>
      </trkpt>
      <trkpt lat="48.7393" lon="7.3406">
        <ele>283.51</ele>
        <time>2020-05-21T19:56:16.000Z</time>
      </trkpt>
      <trkpt lat="48.73932" lon="7.34053">
        <ele>274.49</ele>
        <time>2020-05-21T19:56:19.000Z</time>
      </trkpt>
      <trkpt lat="48.73934" lon="7.34046">
        <ele>271.09</ele>
        <time>2020-05-21T19:56:22.000Z</time>
      </trkpt>
      <trkpt lat="48.73934" lon="7.34039">
        <ele>279.34</ele>
        <time>2020-05-21T19:56:24.000Z</time>
      </trkpt>
      <trkpt lat="48.73933" lon="7.34032">
        <ele>275.17</ele>
        <time>2020-05-21T19:56:26.000Z</time>
      </trkpt>
      <trkpt lat="48.73935" lon="7.34025">
        <ele>271.54</ele>
        <time>2020-05-21T19:56:29.000Z</time>
      </trkpt>
      <trkpt lat="48.73938" lon="7.34019">
        <ele>271.17</ele>
        <time>2020-05-21T19:56:33.000Z</time>
      </trkpt>
      <trkpt lat="48.73939" lon="7.34012">
        <ele>270.12</ele>
        <time>2020-05-21T19:56:35.000Z</time>
      </trkpt>
      <trkpt lat="48.7394" lon="7.34004">
        <ele>270.11</ele>
        <time>2020-05-21T19:56:38.000Z</time>
      </trkpt>
      <trkpt lat="48.73942" lon="7.33996">
        <ele>271.59</ele>
        <time>2020-05-21T19:56:42.000Z</time>
      </trkpt>
      <trkpt lat="48.73944" lon="7.33988">
        <ele>273.2</ele>
        <time>2020-05-21T19:56:45.000Z</time>
      </trkpt>
      <trkpt lat="48.73946" lon="7.33982">
        <ele>274.14</ele>
        <time>2020-05-21T19:56:48.000Z</time>
      </trkpt>
      <trkpt lat="48.73947" lon="7.33975">
        <ele>275.75</ele>
        <time>2020-05-21T19:56:53.000Z</time>
      </trkpt>
      <trkpt lat="48.73948" lon="7.33965">
        <ele>279.45</ele>
        <time>2020-05-21T19:56:57.000Z</time>
      </trkpt>
      <trkpt lat="48.73949" lon="7.33959">
        <ele>281.36</ele>
        <time>2020-05-21T19:57:00.000Z</time>
      </trkpt>
      <trkpt lat="48.73951" lon="7.33953">
        <ele>283.73</ele>
        <time>2020-05-21T19:57:03.000Z</time>
      </trkpt>
      <trkpt lat="48.73953" lon="7.33945">
        <ele>282.85</ele>
        <time>2020-05-21T19:57:06.000Z</time>
      </trkpt>
      <trkpt lat="48.73954" lon="7.33938">
        <ele>282.61</ele>
        <time>2020-05-21T19:57:09.000Z</time>
      </trkpt>
      <trkpt lat="48.73955" lon="7.3393">
        <ele>282.61</ele>
        <time>2020-05-21T19:57:11.000Z</time>
      </trkpt>
      <trkpt lat="48.73956" lon="7.33923">
        <ele>279.87</ele>
        <time>2020-05-21T19:57:13.000Z</time>
      </trkpt>
      <trkpt lat="48.73959" lon="7.33914">
        <ele>280.47</ele>
        <time>2020-05-21T19:57:16.000Z</time>
      </trkpt>
      <trkpt lat="48.7396" lon="7.33906">
        <ele>281.23</ele>
        <time>2020-05-21T19:57:18.000Z</time>
      </trkpt>
      <trkpt lat="48.73961" lon="7.33897">
        <ele>281.2</ele>
        <time>2020-05-21T19:57:21.000Z</time>
      </trkpt>
      <trkpt lat="48.73963" lon="7.3389">
        <ele>280.83</ele>
        <time>2020-05-21T19:57:23.000Z</time>
      </trkpt>
      <trkpt lat="48.73964" lon="7.33883">
        <ele>279.27</ele>
        <time>2020-05-21T19:57:25.000Z</time>
      </trkpt>
      <trkpt lat="48.73964" lon="7.33874">
        <ele>279.1</ele>
        <time>2020-05-21T19:57:28.000Z</time>
      </trkpt>
      <trkpt lat="48.73966" lon="7.33865">
        <ele>279.33</ele>
        <time>2020-05-21T19:57:31.000Z</time>
      </trkpt>
      <trkpt lat="48.73967" lon="7.33856">
        <ele>279.5</ele>
        <time>2020-05-21T19:57:34.000Z</time>
      </trkpt>
      <trkpt lat="48.7397" lon="7.33849">
        <ele>284.05</ele>
        <time>2020-05-21T19:57:37.000Z</time>
      </trkpt>
      <trkpt lat="48.73973" lon="7.33843">
        <ele>282.24</ele>
        <time>2020-05-21T19:57:40.000Z</time>
      </trkpt>
      <trkpt lat="48.73975" lon="7.33835">
        <ele>283.9</ele>
        <time>2020-05-21T19:57:43.000Z</time>
      </trkpt>
      <trkpt lat="48.73975" lon="7.33827">
        <ele>284.01</ele>
        <time>2020-05-21T19:57:45.000Z</time>
      </trkpt>
      <trkpt lat="48.73977" lon="7.33818">
        <ele>286.19</ele>
        <time>2020-05-21T19:57:48.000Z</time>
      </trkpt>
      <trkpt lat="48.73978" lon="7.33812">
        <ele>281.83</ele>
        <time>2020-05-21T19:57:51.000Z</time>
      </trkpt>
      <trkpt lat="48.73981" lon="7.33805">
        <ele>282.09</ele>
        <time>2020-05-21T19:57:55.000Z</time>
      </trkpt>
      <trkpt lat="48.73984" lon="7.33799">
        <ele>280.2</ele>
        <time>2020-05-21T19:57:58.000Z</time>
      </trkpt>
      <trkpt lat="48.73984" lon="7.3379">
        <ele>279.59</ele>
        <time>2020-05-21T19:58:01.000Z</time>
      </trkpt>
      <trkpt lat="48.73984" lon="7.33782">
        <ele>281.25</ele>
        <time>2020-05-21T19:58:04.000Z</time>
      </trkpt>
      <trkpt lat="48.73987" lon="7.33773">
        <ele>280.22</ele>
        <time>2020-05-21T19:58:07.000Z</time>
      </trkpt>
      <trkpt lat="48.73989" lon="7.33765">
        <ele>282.28</ele>
        <time>2020-05-21T19:58:10.000Z</time>
      </trkpt>
      <trkpt lat="48.73991" lon="7.33754">
        <ele>282.66</ele>
        <time>2020-05-21T19:58:13.000Z</time>
      </trkpt>
      <trkpt lat="48.73992" lon="7.33746">
        <ele>284.27</ele>
        <time>2020-05-21T19:58:15.000Z</time>
      </trkpt>
      <trkpt lat="48.73997" lon="7.33739">
        <ele>286.61</ele>
        <time>2020-05-21T19:58:18.000Z</time>
      </trkpt>
      <trkpt lat="48.74" lon="7.33734">
        <ele>285.45</ele>
        <time>2020-05-21T19:58:20.000Z</time>
      </trkpt>
      <trkpt lat="48.74001" lon="7.33725">
        <ele>286.37</ele>
        <time>2020-05-21T19:58:22.000Z</time>
      </trkpt>
      <trkpt lat="48.74003" lon="7.33717">
        <ele>286.12</ele>
        <time>2020-05-21T19:58:24.000Z</time>
      </trkpt>
      <trkpt lat="48.74005" lon="7.33711">
        <ele>286.41</ele>
        <time>2020-05-21T19:58:26.000Z</time>
      </trkpt>
      <trkpt lat="48.74022" lon="7.3373">
        <ele>286.14</ele>
        <time>2020-05-21T19:58:35.000Z</time>
      </trkpt>
      <trkpt lat="48.74026" lon="7.33736">
        <ele>288.87</ele>
        <time>2020-05-21T19:58:40.000Z</time>
      </trkpt>
      <trkpt lat="48.7403" lon="7.33742">
        <ele>287.2</ele>
        <time>2020-05-21T19:58:43.000Z</time>
      </trkpt>
      <trkpt lat="48.74032" lon="7.33749">
        <ele>289.15</ele>
        <time>2020-05-21T19:58:47.000Z</time>
      </trkpt>
      <trkpt lat="48.74032" lon="7.33757">
        <ele>292.11</ele>
        <time>2020-05-21T19:58:51.000Z</time>
      </trkpt>
      <trkpt lat="48.74032" lon="7.33766">
        <ele>292.46</ele>
        <time>2020-05-21T19:58:54.000Z</time>
      </trkpt>
      <trkpt lat="48.74034" lon="7.33774">
        <ele>295.57</ele>
        <time>2020-05-21T19:58:57.000Z</time>
      </trkpt>
      <trkpt lat="48.74034" lon="7.33783">
        <ele>296.12</ele>
        <time>2020-05-21T19:59:00.000Z</time>
      </trkpt>
      <trkpt lat="48.74035" lon="7.33793">
        <ele>296.96</ele>
        <time>2020-05-21T19:59:03.000Z</time>
      </trkpt>
      <trkpt lat="48.74035" lon="7.338">
        <ele>295.97</ele>
        <time>2020-05-21T19:59:04.000Z</time>
      </trkpt>
      <trkpt lat="48.74034" lon="7.33813">
        <ele>297.49</ele>
        <time>2020-05-21T19:59:06.000Z</time>
      </trkpt>
      <trkpt lat="48.74035" lon="7.33822">
        <ele>297.33</ele>
        <time>2020-05-21T19:59:08.000Z</time>
      </trkpt>
      <trkpt lat="48.74036" lon="7.33835">
        <ele>295.86</ele>
        <time>2020-05-21T19:59:10.000Z</time>
      </trkpt>
      <trkpt lat="48.74037" lon="7.33842">
        <ele>295.7</ele>
        <time>2020-05-21T19:59:11.000Z</time>
      </trkpt>
      <trkpt lat="48.74039" lon="7.3385">
        <ele>295.13</ele>
        <time>2020-05-21T19:59:12.000Z</time>
      </trkpt>
      <trkpt lat="48.7404" lon="7.33863">
        <ele>295.33</ele>
        <time>2020-05-21T19:59:14.000Z</time>
      </trkpt>
      <trkpt lat="48.7404" lon="7.33875">
        <ele>294.43</ele>
        <time>2020-05-21T19:59:16.000Z</time>
      </trkpt>
      <trkpt lat="48.74041" lon="7.33889">
        <ele>291.9</ele>
        <time>2020-05-21T19:59:18.000Z</time>
      </trkpt>
      <trkpt lat="48.74042" lon="7.33901">
        <ele>293.28</ele>
        <time>2020-05-21T19:59:20.000Z</time>
      </trkpt>
      <trkpt lat="48.74043" lon="7.33911">
        <ele>290.95</ele>
        <time>2020-05-21T19:59:22.000Z</time>
      </trkpt>
      <trkpt lat="48.74043" lon="7.3392">
        <ele>291.2</ele>
        <time>2020-05-21T19:59:24.000Z</time>
      </trkpt>
      <trkpt lat="48.74042" lon="7.33932">
        <ele>292.25</ele>
        <time>2020-05-21T19:59:26.000Z</time>
      </trkpt>
      <trkpt lat="48.74042" lon="7.33944">
        <ele>293.56</ele>
        <time>2020-05-21T19:59:28.000Z</time>
      </trkpt>
      <trkpt lat="48.74043" lon="7.33951">
        <ele>292.95</ele>
        <time>2020-05-21T19:59:29.000Z</time>
      </trkpt>
      <trkpt lat="48.74043" lon="7.33958">
        <ele>293.73</ele>
        <time>2020-05-21T19:59:30.000Z</time>
      </trkpt>
      <trkpt lat="48.74045" lon="7.33971">
        <ele>294.07</ele>
        <time>2020-05-21T19:59:32.000Z</time>
      </trkpt>
      <trkpt lat="48.74047" lon="7.33982">
        <ele>295.37</ele>
        <time>2020-05-21T19:59:34.000Z</time>
      </trkpt>
      <trkpt lat="48.74049" lon="7.33994">
        <ele>295.3</ele>
        <time>2020-05-21T19:59:36.000Z</time>
      </trkpt>
      <trkpt lat="48.7405" lon="7.34005">
        <ele>297.41</ele>
        <time>2020-05-21T19:59:38.000Z</time>
      </trkpt>
      <trkpt lat="48.74049" lon="7.34016">
        <ele>297.46</ele>
        <time>2020-05-21T19:59:40.000Z</time>
      </trkpt>
      <trkpt lat="48.74049" lon="7.34028">
        <ele>298.09</ele>
        <time>2020-05-21T19:59:42.000Z</time>
      </trkpt>
      <trkpt lat="48.74049" lon="7.34036">
        <ele>298.25</ele>
        <time>2020-05-21T19:59:44.000Z</time>
      </trkpt>
      <trkpt lat="48.74049" lon="7.3405">
        <ele>299.57</ele>
        <time>2020-05-21T19:59:46.000Z</time>
      </trkpt>
      <trkpt lat="48.74047" lon="7.34062">
        <ele>297.92</ele>
        <time>2020-05-21T19:59:48.000Z</time>
      </trkpt>
      <trkpt lat="48.74047" lon="7.34069">
        <ele>296.3</ele>
        <time>2020-05-21T19:59:49.000Z</time>
      </trkpt>
      <trkpt lat="48.74045" lon="7.34076">
        <ele>294.17</ele>
        <time>2020-05-21T19:59:50.000Z</time>
      </trkpt>
      <trkpt lat="48.74044" lon="7.34086">
        <ele>294.92</ele>
        <time>2020-05-21T19:59:51.000Z</time>
      </trkpt>
      <trkpt lat="48.74045" lon="7.34093">
        <ele>294.41</ele>
        <time>2020-05-21T19:59:52.000Z</time>
      </trkpt>
      <trkpt lat="48.74045" lon="7.34102">
        <ele>295.15</ele>
        <time>2020-05-21T19:59:53.000Z</time>
      </trkpt>
      <trkpt lat="48.74046" lon="7.34111">
        <ele>295.13</ele>
        <time>2020-05-21T19:59:54.000Z</time>
      </trkpt>
      <trkpt lat="48.74046" lon="7.34119">
        <ele>294.7</ele>
        <time>2020-05-21T19:59:55.000Z</time>
      </trkpt>
      <trkpt lat="48.74046" lon="7.3413">
        <ele>295.16</ele>
        <time>2020-05-21T19:59:56.000Z</time>
      </trkpt>
      <trkpt lat="48.74045" lon="7.34139">
        <ele>295.34</ele>
        <time>2020-05-21T19:59:57.000Z</time>
      </trkpt>
      <trkpt lat="48.74045" lon="7.34149">
        <ele>296.26</ele>
        <time>2020-05-21T19:59:58.000Z</time>
      </trkpt>
      <trkpt lat="48.74047" lon="7.34162">
        <ele>297.35</ele>
        <time>2020-05-21T20:00:00.000Z</time>
      </trkpt>
      <trkpt lat="48.74049" lon="7.3417">
        <ele>297.5</ele>
        <time>2020-05-21T20:00:01.000Z</time>
      </trkpt>
      <trkpt lat="48.74052" lon="7.34177">
        <ele>297.8</ele>
        <time>2020-05-21T20:00:02.000Z</time>
      </trkpt>
      <trkpt lat="48.74054" lon="7.34185">
        <ele>298.44</ele>
        <time>2020-05-21T20:00:03.000Z</time>
      </trkpt>
      <trkpt lat="48.74055" lon="7.34195">
        <ele>298.45</ele>
        <time>2020-05-21T20:00:04.000Z</time>
      </trkpt>
      <trkpt lat="48.74057" lon="7.34202">
        <ele>299.07</ele>
        <time>2020-05-21T20:00:05.000Z</time>
      </trkpt>
      <trkpt lat="48.74059" lon="7.34211">
        <ele>299.44</ele>
        <time>2020-05-21T20:00:06.000Z</time>
      </trkpt>
      <trkpt lat="48.74062" lon="7.34227">
        <ele>297.91</ele>
        <time>2020-05-21T20:00:08.000Z</time>
      </trkpt>
      <trkpt lat="48.74063" lon="7.34242">
        <ele>295.84</ele>
        <time>2020-05-21T20:00:10.000Z</time>
      </trkpt>
      <trkpt lat="48.74063" lon="7.34251">
        <ele>295.5</ele>
        <time>2020-05-21T20:00:11.000Z</time>
      </trkpt>
      <trkpt lat="48.74088" lon="7.34352">
        <ele>291.07</ele>
        <time>2020-05-21T20:00:26.000Z</time>
      </trkpt>
      <trkpt lat="48.74092" lon="7.3436">
        <ele>290.32</ele>
        <time>2020-05-21T20:00:28.000Z</time>
      </trkpt>
      <trkpt lat="48.74095" lon="7.34368">
        <ele>292.08</ele>
        <time>2020-05-21T20:00:30.000Z</time>
      </trkpt>
      <trkpt lat="48.74098" lon="7.34376">
        <ele>292.81</ele>
        <time>2020-05-21T20:00:32.000Z</time>
      </trkpt>
      <trkpt lat="48.74103" lon="7.34378">
        <ele>292.91</ele>
        <time>2020-05-21T20:00:34.000Z</time>
      </trkpt>
      <trkpt lat="48.74108" lon="7.34376">
        <ele>294.21</ele>
        <time>2020-05-21T20:00:42.000Z</time>
      </trkpt>
      <trkpt lat="48.74111" lon="7.34382">
        <ele>294.99</ele>
        <time>2020-05-21T20:00:44.000Z</time>
      </trkpt>
      <trkpt lat="48.74116" lon="7.34388">
        <ele>294.81</ele>
        <time>2020-05-21T20:00:47.000Z</time>
      </trkpt>
      <trkpt lat="48.74121" lon="7.34394">
        <ele>294.36</ele>
        <time>2020-05-21T20:00:50.000Z</time>
      </trkpt>
      <trkpt lat="48.74126" lon="7.34398">
        <ele>297.28</ele>
        <time>2020-05-21T20:00:52.000Z</time>
      </trkpt>
      <trkpt lat="48.74131" lon="7.344">
        <ele>299.06</ele>
        <time>2020-05-21T20:00:56.000Z</time>
      </trkpt>
      <trkpt lat="48.74137" lon="7.34404">
        <ele>298.66</ele>
        <time>2020-05-21T20:00:59.000Z</time>
      </trkpt>
      <trkpt lat="48.74143" lon="7.34407">
        <ele>299.1</ele>
        <time>2020-05-21T20:01:02.000Z</time>
      </trkpt>
      <trkpt lat="48.74148" lon="7.34409">
        <ele>302.5</ele>
        <time>2020-05-21T20:01:04.000Z</time>
      </trkpt>
      <trkpt lat="48.74153" lon="7.34412">
        <ele>305.08</ele>
        <time>2020-05-21T20:01:06.000Z</time>
      </trkpt>
      <trkpt lat="48.74158" lon="7.34415">
        <ele>305.22</ele>
        <time>2020-05-21T20:01:08.000Z</time>
      </trkpt>
      <trkpt lat="48.74163" lon="7.34416">
        <ele>306.73</ele>
        <time>2020-05-21T20:01:10.000Z</time>
      </trkpt>
      <trkpt lat="48.74168" lon="7.34421">
        <ele>308.19</ele>
        <time>2020-05-21T20:01:13.000Z</time>
      </trkpt>
      <trkpt lat="48.74173" lon="7.34427">
        <ele>308.87</ele>
        <time>2020-05-21T20:01:16.000Z</time>
      </trkpt>
      <trkpt lat="48.74178" lon="7.34432">
        <ele>309.69</ele>
        <time>2020-05-21T20:01:20.000Z</time>
      </trkpt>
      <trkpt lat="48.74184" lon="7.34434">
        <ele>309.35</ele>
        <time>2020-05-21T20:01:24.000Z</time>
      </trkpt>
      <trkpt lat="48.74189" lon="7.34435">
        <ele>308.33</ele>
        <time>2020-05-21T20:01:26.000Z</time>
      </trkpt>
      <trkpt lat="48.74195" lon="7.34435">
        <ele>311.6</ele>
        <time>2020-05-21T20:01:29.000Z</time>
      </trkpt>
      <trkpt lat="48.742" lon="7.34435">
        <ele>313.73</ele>
        <time>2020-05-21T20:01:32.000Z</time>
      </trkpt>
      <trkpt lat="48.74207" lon="7.34435">
        <ele>316.79</ele>
        <time>2020-05-21T20:01:39.000Z</time>
      </trkpt>
      <trkpt lat="48.74212" lon="7.34436">
        <ele>318.08</ele>
        <time>2020-05-21T20:01:41.000Z</time>
      </trkpt>
      <trkpt lat="48.74219" lon="7.3444">
        <ele>317.95</ele>
        <time>2020-05-21T20:01:44.000Z</time>
      </trkpt>
      <trkpt lat="48.74224" lon="7.34444">
        <ele>320.71</ele>
        <time>2020-05-21T20:01:47.000Z</time>
      </trkpt>
      <trkpt lat="48.74228" lon="7.34446">
        <ele>320.89</ele>
        <time>2020-05-21T20:01:49.000Z</time>
      </trkpt>
      <trkpt lat="48.74234" lon="7.34448">
        <ele>322.18</ele>
        <time>2020-05-21T20:01:52.000Z</time>
      </trkpt>
      <trkpt lat="48.74239" lon="7.34452">
        <ele>321.36</ele>
        <time>2020-05-21T20:01:55.000Z</time>
      </trkpt>
      <trkpt lat="48.74244" lon="7.34455">
        <ele>321.77</ele>
        <time>2020-05-21T20:01:58.000Z</time>
      </trkpt>
      <trkpt lat="48.7425" lon="7.34457">
        <ele>320.66</ele>
        <time>2020-05-21T20:02:01.000Z</time>
      </trkpt>
      <trkpt lat="48.74255" lon="7.34456">
        <ele>319.57</ele>
        <time>2020-05-21T20:02:04.000Z</time>
      </trkpt>
      <trkpt lat="48.7426" lon="7.34457">
        <ele>319.44</ele>
        <time>2020-05-21T20:02:07.000Z</time>
      </trkpt>
      <trkpt lat="48.74265" lon="7.34457">
        <ele>321.12</ele>
        <time>2020-05-21T20:02:10.000Z</time>
      </trkpt>
      <trkpt lat="48.7427" lon="7.34454">
        <ele>322.02</ele>
        <time>2020-05-21T20:02:13.000Z</time>
      </trkpt>
      <trkpt lat="48.74275" lon="7.34454">
        <ele>321.24</ele>
        <time>2020-05-21T20:02:16.000Z</time>
      </trkpt>
      <trkpt lat="48.74281" lon="7.34452">
        <ele>321.46</ele>
        <time>2020-05-21T20:02:19.000Z</time>
      </trkpt>
      <trkpt lat="48.74288" lon="7.34454">
        <ele>324.84</ele>
        <time>2020-05-21T20:02:22.000Z</time>
      </trkpt>
      <trkpt lat="48.74293" lon="7.34455">
        <ele>324.51</ele>
        <time>2020-05-21T20:02:25.000Z</time>
      </trkpt>
      <trkpt lat="48.74298" lon="7.34455">
        <ele>324.05</ele>
        <time>2020-05-21T20:02:28.000Z</time>
      </trkpt>
      <trkpt lat="48.74303" lon="7.34454">
        <ele>323.13</ele>
        <time>2020-05-21T20:02:31.000Z</time>
      </trkpt>
      <trkpt lat="48.74309" lon="7.34453">
        <ele>324.17</ele>
        <time>2020-05-21T20:02:34.000Z</time>
      </trkpt>
      <trkpt lat="48.74314" lon="7.3445">
        <ele>323.89</ele>
        <time>2020-05-21T20:02:37.000Z</time>
      </trkpt>
      <trkpt lat="48.74318" lon="7.34447">
        <ele>324.38</ele>
        <time>2020-05-21T20:02:39.000Z</time>
      </trkpt>
      <trkpt lat="48.74323" lon="7.34444">
        <ele>325.2</ele>
        <time>2020-05-21T20:02:42.000Z</time>
      </trkpt>
      <trkpt lat="48.74328" lon="7.34443">
        <ele>323.66</ele>
        <time>2020-05-21T20:02:45.000Z</time>
      </trkpt>
      <trkpt lat="48.74334" lon="7.34439">
        <ele>323.74</ele>
        <time>2020-05-21T20:02:48.000Z</time>
      </trkpt>
      <trkpt lat="48.74339" lon="7.34435">
        <ele>325.12</ele>
        <time>2020-05-21T20:02:51.000Z</time>
      </trkpt>
      <trkpt lat="48.74343" lon="7.34428">
        <ele>325.56</ele>
        <time>2020-05-21T20:02:54.000Z</time>
      </trkpt>
      <trkpt lat="48.74347" lon="7.34422">
        <ele>326.42</ele>
        <time>2020-05-21T20:02:58.000Z</time>
      </trkpt>
      <trkpt lat="48.74351" lon="7.34417">
        <ele>328.81</ele>
        <time>2020-05-21T20:03:01.000Z</time>
      </trkpt>
      <trkpt lat="48.74354" lon="7.34409">
        <ele>326.52</ele>
        <time>2020-05-21T20:03:04.000Z</time>
      </trkpt>
      <trkpt lat="48.74357" lon="7.34401">
        <ele>324.88</ele>
        <time>2020-05-21T20:03:07.000Z</time>
      </trkpt>
      <trkpt lat="48.7436" lon="7.34395">
        <ele>326.99</ele>
        <time>2020-05-21T20:03:09.000Z</time>
      </trkpt>
      <trkpt lat="48.74363" lon="7.3439">
        <ele>327.92</ele>
        <time>2020-05-21T20:03:11.000Z</time>
      </trkpt>
      <trkpt lat="48.74368" lon="7.34384">
        <ele>326.48</ele>
        <time>2020-05-21T20:03:14.000Z</time>
      </trkpt>
      <trkpt lat="48.74372" lon="7.34377">
        <ele>327.19</ele>
        <time>2020-05-21T20:03:17.000Z</time>
      </trkpt>
      <trkpt lat="48.74373" lon="7.34371">
        <ele>328.23</ele>
        <time>2020-05-21T20:03:20.000Z</time>
      </trkpt>
      <trkpt lat="48.74369" lon="7.34367">
        <ele>329.03</ele>
        <time>2020-05-21T20:03:41.000Z</time>
      </trkpt>
      <trkpt lat="48.74372" lon="7.34362">
        <ele>325.94</ele>
        <time>2020-05-21T20:04:13.000Z</time>
      </trkpt>
      <trkpt lat="48.74373" lon="7.34354">
        <ele>326.16</ele>
        <time>2020-05-21T20:04:28.000Z</time>
      </trkpt>
      <trkpt lat="48.74374" lon="7.34346">
        <ele>325.86</ele>
        <time>2020-05-21T20:04:33.000Z</time>
      </trkpt>
      <trkpt lat="48.74374" lon="7.34339">
        <ele>328.83</ele>
        <time>2020-05-21T20:04:41.000Z</time>
      </trkpt>
      <trkpt lat="48.74369" lon="7.34343">
        <ele>329.32</ele>
        <time>2020-05-21T20:04:52.000Z</time>
      </trkpt>
      <trkpt lat="48.74366" lon="7.34348">
        <ele>334.5</ele>
        <time>2020-05-21T20:04:58.000Z</time>
      </trkpt>
      <trkpt lat="48.74362" lon="7.34344">
        <ele>336.45</ele>
        <time>2020-05-21T20:05:06.000Z</time>
      </trkpt>
      <trkpt lat="48.7436" lon="7.34337">
        <ele>335.82</ele>
        <time>2020-05-21T20:05:12.000Z</time>
      </trkpt>
      <trkpt lat="48.74357" lon="7.34329">
        <ele>334.68</ele>
        <time>2020-05-21T20:05:18.000Z</time>
      </trkpt>
      <trkpt lat="48.74353" lon="7.34323">
        <ele>336.92</ele>
        <time>2020-05-21T20:05:21.000Z</time>
      </trkpt>
      <trkpt lat="48.74352" lon="7.34315">
        <ele>335.12</ele>
        <time>2020-05-21T20:05:25.000Z</time>
      </trkpt>
      <trkpt lat="48.74352" lon="7.34306">
        <ele>334.25</ele>
        <time>2020-05-21T20:05:29.000Z</time>
      </trkpt>
      <trkpt lat="48.74351" lon="7.34299">
        <ele>335.63</ele>
        <time>2020-05-21T20:05:33.000Z</time>
      </trkpt>
      <trkpt lat="48.74351" lon="7.34292">
        <ele>336.41</ele>
        <time>2020-05-21T20:05:36.000Z</time>
      </trkpt>
      <trkpt lat="48.74353" lon="7.34285">
        <ele>337.35</ele>
        <time>2020-05-21T20:05:40.000Z</time>
      </trkpt>
      <trkpt lat="48.74352" lon="7.34277">
        <ele>340.18</ele>
        <time>2020-05-21T20:05:44.000Z</time>
      </trkpt>
      <trkpt lat="48.74354" lon="7.34271">
        <ele>341.34</ele>
        <time>2020-05-21T20:05:49.000Z</time>
      </trkpt>
      <trkpt lat="48.74354" lon="7.34261">
        <ele>338.9</ele>
        <time>2020-05-21T20:05:56.000Z</time>
      </trkpt>
      <trkpt lat="48.74353" lon="7.34254">
        <ele>339.44</ele>
        <time>2020-05-21T20:05:59.000Z</time>
      </trkpt>
      <trkpt lat="48.74352" lon="7.34246">
        <ele>336.17</ele>
        <time>2020-05-21T20:06:02.000Z</time>
      </trkpt>
      <trkpt lat="48.7435" lon="7.3424">
        <ele>300.1</ele>
        <time>2020-05-21T20:06:05.000Z</time>
      </trkpt>
      <trkpt lat="48.74352" lon="7.34232">
        <ele>320.93</ele>
        <time>2020-05-21T20:06:10.000Z</time>
      </trkpt>
      <trkpt lat="48.74354" lon="7.34224">
        <ele>293.29</ele>
        <time>2020-05-21T20:06:14.000Z</time>
      </trkpt>
      <trkpt lat="48.74357" lon="7.34218">
        <ele>317.72</ele>
        <time>2020-05-21T20:06:18.000Z</time>
      </trkpt>
      <trkpt lat="48.7436" lon="7.34213">
        <ele>326.51</ele>
        <time>2020-05-21T20:06:22.000Z</time>
      </trkpt>
      <trkpt lat="48.74363" lon="7.34207">
        <ele>331.49</ele>
        <time>2020-05-21T20:06:27.000Z</time>
      </trkpt>
      <trkpt lat="48.74364" lon="7.34201">
        <ele>336.06</ele>
        <time>2020-05-21T20:06:32.000Z</time>
      </trkpt>
      <trkpt lat="48.74368" lon="7.34196">
        <ele>339.76</ele>
        <time>2020-05-21T20:06:36.000Z</time>
      </trkpt>
      <trkpt lat="48.74372" lon="7.34192">
        <ele>343.46</ele>
        <time>2020-05-21T20:06:40.000Z</time>
      </trkpt>
      <trkpt lat="48.74377" lon="7.34189">
        <ele>347.55</ele>
        <time>2020-05-21T20:06:43.000Z</time>
      </trkpt>
      <trkpt lat="48.74381" lon="7.34188">
        <ele>349.1</ele>
        <time>2020-05-21T20:06:47.000Z</time>
      </trkpt>
      <trkpt lat="48.74385" lon="7.34183">
        <ele>319.75</ele>
        <time>2020-05-21T20:06:54.000Z</time>
      </trkpt>
      <trkpt lat="48.74388" lon="7.34179">
        <ele>342.23</ele>
        <time>2020-05-21T20:06:59.000Z</time>
      </trkpt>
      <trkpt lat="48.74395" lon="7.3417">
        <ele>354.3</ele>
        <time>2020-05-21T20:07:07.000Z</time>
      </trkpt>
      <trkpt lat="48.74395" lon="7.34161">
        <ele>355.22</ele>
        <time>2020-05-21T20:07:12.000Z</time>
      </trkpt>
      <trkpt lat="48.74399" lon="7.34157">
        <ele>359.6</ele>
        <time>2020-05-21T20:07:18.000Z</time>
      </trkpt>
      <trkpt lat="48.74404" lon="7.34144">
        <ele>363.11</ele>
        <time>2020-05-21T20:07:26.000Z</time>
      </trkpt>
      <trkpt lat="48.74405" lon="7.34137">
        <ele>363.83</ele>
        <time>2020-05-21T20:07:30.000Z</time>
      </trkpt>
      <trkpt lat="48.74407" lon="7.34129">
        <ele>365.75</ele>
        <time>2020-05-21T20:07:35.000Z</time>
      </trkpt>
      <trkpt lat="48.74408" lon="7.34121">
        <ele>367.34</ele>
        <time>2020-05-21T20:07:40.000Z</time>
      </trkpt>
      <trkpt lat="48.74406" lon="7.34114">
        <ele>369.27</ele>
        <time>2020-05-21T20:07:47.000Z</time>
      </trkpt>
      <trkpt lat="48.74406" lon="7.34107">
        <ele>371.23</ele>
        <time>2020-05-21T20:07:52.000Z</time>
      </trkpt>
      <trkpt lat="48.74408" lon="7.341">
        <ele>371.82</ele>
        <time>2020-05-21T20:08:01.000Z</time>
      </trkpt>
      <trkpt lat="48.74409" lon="7.34093">
        <ele>377.97</ele>
        <time>2020-05-21T20:08:09.000Z</time>
      </trkpt>
      <trkpt lat="48.74405" lon="7.3409">
        <ele>375.44</ele>
        <time>2020-05-21T20:08:19.000Z</time>
      </trkpt>
      <trkpt lat="48.74402" lon="7.34097">
        <ele>375.42</ele>
        <time>2020-05-21T20:08:25.000Z</time>
      </trkpt>
      <trkpt lat="48.74399" lon="7.34103">
        <ele>350.35</ele>
        <time>2020-05-21T20:08:29.000Z</time>
      </trkpt>
      <trkpt lat="48.74395" lon="7.34107">
        <ele>370.1</ele>
        <time>2020-05-21T20:08:34.000Z</time>
      </trkpt>
      <trkpt lat="48.74391" lon="7.34112">
        <ele>377.16</ele>
        <time>2020-05-21T20:08:41.000Z</time>
      </trkpt>
      <trkpt lat="48.74386" lon="7.34113">
        <ele>378.07</ele>
        <time>2020-05-21T20:08:48.000Z</time>
      </trkpt>
      <trkpt lat="48.74382" lon="7.34116">
        <ele>377.05</ele>
        <time>2020-05-21T20:08:52.000Z</time>
      </trkpt>
      <trkpt lat="48.74377" lon="7.34118">
        <ele>376.48</ele>
        <time>2020-05-21T20:08:59.000Z</time>
      </trkpt>
      <trkpt lat="48.74372" lon="7.34122">
        <ele>374.77</ele>
        <time>2020-05-21T20:09:03.000Z</time>
      </trkpt>
      <trkpt lat="48.74368" lon="7.34126">
        <ele>373.27</ele>
        <time>2020-05-21T20:09:07.000Z</time>
      </trkpt>
      <trkpt lat="48.74363" lon="7.34129">
        <ele>375.64</ele>
        <time>2020-05-21T20:09:11.000Z</time>
      </trkpt>
      <trkpt lat="48.74357" lon="7.3413">
        <ele>374.71</ele>
        <time>2020-05-21T20:09:15.000Z</time>
      </trkpt>
      <trkpt lat="48.74353" lon="7.34129">
        <ele>374</ele>
        <time>2020-05-21T20:09:19.000Z</time>
      </trkpt>
      <trkpt lat="48.74348" lon="7.34128">
        <ele>378.19</ele>
        <time>2020-05-21T20:09:23.000Z</time>
      </trkpt>
      <trkpt lat="48.74343" lon="7.34128">
        <ele>379.44</ele>
        <time>2020-05-21T20:09:28.000Z</time>
      </trkpt>
      <trkpt lat="48.74339" lon="7.34124">
        <ele>340.21</ele>
        <time>2020-05-21T20:09:33.000Z</time>
      </trkpt>
      <trkpt lat="48.74343" lon="7.34119">
        <ele>370.5</ele>
        <time>2020-05-21T20:09:39.000Z</time>
      </trkpt>
      <trkpt lat="48.74345" lon="7.34113">
        <ele>374.17</ele>
        <time>2020-05-21T20:09:45.000Z</time>
      </trkpt>
      <trkpt lat="48.74348" lon="7.34107">
        <ele>379.2</ele>
        <time>2020-05-21T20:09:52.000Z</time>
      </trkpt>
      <trkpt lat="48.74349" lon="7.34101">
        <ele>380.84</ele>
        <time>2020-05-21T20:09:58.000Z</time>
      </trkpt>
      <trkpt lat="48.74349" lon="7.34093">
        <ele>380.62</ele>
        <time>2020-05-21T20:10:05.000Z</time>
      </trkpt>
      <trkpt lat="48.74343" lon="7.34094">
        <ele>383.3</ele>
        <time>2020-05-21T20:10:14.000Z</time>
      </trkpt>
      <trkpt lat="48.74339" lon="7.34092">
        <ele>388.99</ele>
        <time>2020-05-21T20:10:21.000Z</time>
      </trkpt>
      <trkpt lat="48.74338" lon="7.34084">
        <ele>390.11</ele>
        <time>2020-05-21T20:10:25.000Z</time>
      </trkpt>
      <trkpt lat="48.74295" lon="7.34021">
        <ele>391.63</ele>
        <time>2020-05-21T20:11:01.000Z</time>
      </trkpt>
      <trkpt lat="48.74293" lon="7.34014">
        <ele>392.07</ele>
        <time>2020-05-21T20:11:04.000Z</time>
      </trkpt>
      <trkpt lat="48.74289" lon="7.34008">
        <ele>393.48</ele>
        <time>2020-05-21T20:11:08.000Z</time>
      </trkpt>
      <trkpt lat="48.74286" lon="7.34001">
        <ele>394.11</ele>
        <time>2020-05-21T20:11:11.000Z</time>
      </trkpt>
      <trkpt lat="48.74286" lon="7.33993">
        <ele>393.89</ele>
        <time>2020-05-21T20:11:14.000Z</time>
      </trkpt>
      <trkpt lat="48.74288" lon="7.33986">
        <ele>396</ele>
        <time>2020-05-21T20:11:18.000Z</time>
      </trkpt>
      <trkpt lat="48.74292" lon="7.33979">
        <ele>396.16</ele>
        <time>2020-05-21T20:11:22.000Z</time>
      </trkpt>
      <trkpt lat="48.74294" lon="7.33972">
        <ele>397.36</ele>
        <time>2020-05-21T20:11:26.000Z</time>
      </trkpt>
      <trkpt lat="48.74295" lon="7.33965">
        <ele>397.46</ele>
        <time>2020-05-21T20:11:29.000Z</time>
      </trkpt>
      <trkpt lat="48.74296" lon="7.33957">
        <ele>395.63</ele>
        <time>2020-05-21T20:11:33.000Z</time>
      </trkpt>
      <trkpt lat="48.74295" lon="7.33949">
        <ele>396.19</ele>
        <time>2020-05-21T20:11:37.000Z</time>
      </trkpt>
      <trkpt lat="48.74293" lon="7.33942">
        <ele>396.82</ele>
        <time>2020-05-21T20:11:40.000Z</time>
      </trkpt>
      <trkpt lat="48.74294" lon="7.33934">
        <ele>396.22</ele>
        <time>2020-05-21T20:11:43.000Z</time>
      </trkpt>
      <trkpt lat="48.74295" lon="7.33927">
        <ele>398.22</ele>
        <time>2020-05-21T20:11:45.000Z</time>
      </trkpt>
      <trkpt lat="48.74295" lon="7.33919">
        <ele>399.68</ele>
        <time>2020-05-21T20:11:48.000Z</time>
      </trkpt>
      <trkpt lat="48.74296" lon="7.33908">
        <ele>401.59</ele>
        <time>2020-05-21T20:11:51.000Z</time>
      </trkpt>
      <trkpt lat="48.74297" lon="7.33901">
        <ele>401.16</ele>
        <time>2020-05-21T20:11:53.000Z</time>
      </trkpt>
      <trkpt lat="48.74299" lon="7.33893">
        <ele>404.64</ele>
        <time>2020-05-21T20:11:56.000Z</time>
      </trkpt>
      <trkpt lat="48.743" lon="7.33886">
        <ele>406.46</ele>
        <time>2020-05-21T20:11:58.000Z</time>
      </trkpt>
      <trkpt lat="48.74301" lon="7.3388">
        <ele>404.63</ele>
        <time>2020-05-21T20:12:00.000Z</time>
      </trkpt>
      <trkpt lat="48.74302" lon="7.3387">
        <ele>404.59</ele>
        <time>2020-05-21T20:12:03.000Z</time>
      </trkpt>
      <trkpt lat="48.74304" lon="7.33863">
        <ele>405.84</ele>
        <time>2020-05-21T20:12:07.000Z</time>
      </trkpt>
      <trkpt lat="48.74302" lon="7.33855">
        <ele>407.52</ele>
        <time>2020-05-21T20:12:10.000Z</time>
      </trkpt>
      <trkpt lat="48.74302" lon="7.33847">
        <ele>407.33</ele>
        <time>2020-05-21T20:12:13.000Z</time>
      </trkpt>
      <trkpt lat="48.74301" lon="7.33838">
        <ele>406.74</ele>
        <time>2020-05-21T20:12:16.000Z</time>
      </trkpt>
      <trkpt lat="48.74301" lon="7.33831">
        <ele>406.3</ele>
        <time>2020-05-21T20:12:19.000Z</time>
      </trkpt>
      <trkpt lat="48.74302" lon="7.33821">
        <ele>407.09</ele>
        <time>2020-05-21T20:12:22.000Z</time>
      </trkpt>
      <trkpt lat="48.74305" lon="7.33814">
        <ele>406.46</ele>
        <time>2020-05-21T20:12:25.000Z</time>
      </trkpt>
      <trkpt lat="48.74305" lon="7.33807">
        <ele>407.83</ele>
        <time>2020-05-21T20:12:34.000Z</time>
      </trkpt>
      <trkpt lat="48.74302" lon="7.338">
        <ele>407.5</ele>
        <time>2020-05-21T20:13:38.000Z</time>
      </trkpt>
      <trkpt lat="48.74301" lon="7.33792">
        <ele>408</ele>
        <time>2020-05-21T20:13:42.000Z</time>
      </trkpt>
      <trkpt lat="48.74301" lon="7.33784">
        <ele>408.41</ele>
        <time>2020-05-21T20:13:46.000Z</time>
      </trkpt>
      <trkpt lat="48.74301" lon="7.33776">
        <ele>390.91</ele>
        <time>2020-05-21T20:13:49.000Z</time>
      </trkpt>
      <trkpt lat="48.74301" lon="7.33768">
        <ele>399.32</ele>
        <time>2020-05-21T20:13:52.000Z</time>
      </trkpt>
      <trkpt lat="48.74301" lon="7.33761">
        <ele>405.84</ele>
        <time>2020-05-21T20:13:56.000Z</time>
      </trkpt>
      <trkpt lat="48.74298" lon="7.33754">
        <ele>408.48</ele>
        <time>2020-05-21T20:13:58.000Z</time>
      </trkpt>
      <trkpt lat="48.74296" lon="7.33747">
        <ele>408.54</ele>
        <time>2020-05-21T20:14:01.000Z</time>
      </trkpt>
      <trkpt lat="48.74295" lon="7.33739">
        <ele>410.39</ele>
        <time>2020-05-21T20:14:03.000Z</time>
      </trkpt>
      <trkpt lat="48.74293" lon="7.33733">
        <ele>412.91</ele>
        <time>2020-05-21T20:14:06.000Z</time>
      </trkpt>
      <trkpt lat="48.74287" lon="7.33719">
        <ele>417.79</ele>
        <time>2020-05-21T20:14:11.000Z</time>
      </trkpt>
      <trkpt lat="48.74284" lon="7.3371">
        <ele>420.32</ele>
        <time>2020-05-21T20:14:14.000Z</time>
      </trkpt>
      <trkpt lat="48.7428" lon="7.33702">
        <ele>421.97</ele>
        <time>2020-05-21T20:14:18.000Z</time>
      </trkpt>
      <trkpt lat="48.74276" lon="7.33696">
        <ele>420.18</ele>
        <time>2020-05-21T20:14:21.000Z</time>
      </trkpt>
      <trkpt lat="48.74273" lon="7.33679">
        <ele>421.66</ele>
        <time>2020-05-21T20:14:26.000Z</time>
      </trkpt>
      <trkpt lat="48.74272" lon="7.33672">
        <ele>421.75</ele>
        <time>2020-05-21T20:14:28.000Z</time>
      </trkpt>
      <trkpt lat="48.74273" lon="7.33664">
        <ele>422.97</ele>
        <time>2020-05-21T20:14:31.000Z</time>
      </trkpt>
      <trkpt lat="48.74276" lon="7.33657">
        <ele>422.97</ele>
        <time>2020-05-21T20:14:34.000Z</time>
      </trkpt>
      <trkpt lat="48.74278" lon="7.33647">
        <ele>422.33</ele>
        <time>2020-05-21T20:14:37.000Z</time>
      </trkpt>
      <trkpt lat="48.74279" lon="7.33639">
        <ele>421.48</ele>
        <time>2020-05-21T20:14:39.000Z</time>
      </trkpt>
      <trkpt lat="48.74278" lon="7.33629">
        <ele>422.93</ele>
        <time>2020-05-21T20:14:42.000Z</time>
      </trkpt>
      <trkpt lat="48.74278" lon="7.33621">
        <ele>422.95</ele>
        <time>2020-05-21T20:14:45.000Z</time>
      </trkpt>
      <trkpt lat="48.74278" lon="7.33612">
        <ele>425.27</ele>
        <time>2020-05-21T20:14:48.000Z</time>
      </trkpt>
      <trkpt lat="48.7428" lon="7.33606">
        <ele>423.14</ele>
        <time>2020-05-21T20:14:51.000Z</time>
      </trkpt>
      <trkpt lat="48.74282" lon="7.33597">
        <ele>424.92</ele>
        <time>2020-05-21T20:14:54.000Z</time>
      </trkpt>
      <trkpt lat="48.74284" lon="7.33588">
        <ele>427.15</ele>
        <time>2020-05-21T20:14:57.000Z</time>
      </trkpt>
      <trkpt lat="48.74286" lon="7.33581">
        <ele>425.31</ele>
        <time>2020-05-21T20:15:00.000Z</time>
      </trkpt>
      <trkpt lat="48.74288" lon="7.33574">
        <ele>426.11</ele>
        <time>2020-05-21T20:15:02.000Z</time>
      </trkpt>
      <trkpt lat="48.7429" lon="7.33567">
        <ele>426.02</ele>
        <time>2020-05-21T20:15:04.000Z</time>
      </trkpt>
      <trkpt lat="48.74293" lon="7.33558">
        <ele>425.01</ele>
        <time>2020-05-21T20:15:07.000Z</time>
      </trkpt>
      <trkpt lat="48.74296" lon="7.33552">
        <ele>423.42</ele>
        <time>2020-05-21T20:15:09.000Z</time>
      </trkpt>
      <trkpt lat="48.74303" lon="7.33534">
        <ele>422.17</ele>
        <time>2020-05-21T20:15:13.000Z</time>
      </trkpt>
      <trkpt lat="48.74306" lon="7.33526">
        <ele>423.73</ele>
        <time>2020-05-21T20:15:15.000Z</time>
      </trkpt>
      <trkpt lat="48.74309" lon="7.33519">
        <ele>423.08</ele>
        <time>2020-05-21T20:15:17.000Z</time>
      </trkpt>
      <trkpt lat="48.74311" lon="7.33513">
        <ele>423.3</ele>
        <time>2020-05-21T20:15:19.000Z</time>
      </trkpt>
      <trkpt lat="48.74314" lon="7.33504">
        <ele>421.76</ele>
        <time>2020-05-21T20:15:22.000Z</time>
      </trkpt>
      <trkpt lat="48.74317" lon="7.33498">
        <ele>418.77</ele>
        <time>2020-05-21T20:15:24.000Z</time>
      </trkpt>
      <trkpt lat="48.74321" lon="7.33495">
        <ele>419.25</ele>
        <time>2020-05-21T20:15:27.000Z</time>
      </trkpt>
      <trkpt lat="48.74324" lon="7.3349">
        <ele>420.46</ele>
        <time>2020-05-21T20:15:29.000Z</time>
      </trkpt>
      <trkpt lat="48.74327" lon="7.33484">
        <ele>421.48</ele>
        <time>2020-05-21T20:15:31.000Z</time>
      </trkpt>
      <trkpt lat="48.7433" lon="7.33478">
        <ele>422.87</ele>
        <time>2020-05-21T20:15:33.000Z</time>
      </trkpt>
      <trkpt lat="48.74333" lon="7.33473">
        <ele>423.71</ele>
        <time>2020-05-21T20:15:35.000Z</time>
      </trkpt>
      <trkpt lat="48.74336" lon="7.33468">
        <ele>424.66</ele>
        <time>2020-05-21T20:15:39.000Z</time>
      </trkpt>
      <trkpt lat="48.74341" lon="7.33462">
        <ele>425.07</ele>
        <time>2020-05-21T20:15:43.000Z</time>
      </trkpt>
      <trkpt lat="48.74345" lon="7.33455">
        <ele>427.91</ele>
        <time>2020-05-21T20:15:46.000Z</time>
      </trkpt>
      <trkpt lat="48.74347" lon="7.33447">
        <ele>434.41</ele>
        <time>2020-05-21T20:15:50.000Z</time>
      </trkpt>
      <trkpt lat="48.7435" lon="7.33441">
        <ele>432.52</ele>
        <time>2020-05-21T20:15:53.000Z</time>
      </trkpt>
      <trkpt lat="48.74355" lon="7.33437">
        <ele>429.89</ele>
        <time>2020-05-21T20:15:56.000Z</time>
      </trkpt>
      <trkpt lat="48.74359" lon="7.33431">
        <ele>430.69</ele>
        <time>2020-05-21T20:15:59.000Z</time>
      </trkpt>
      <trkpt lat="48.74362" lon="7.33424">
        <ele>431.55</ele>
        <time>2020-05-21T20:16:02.000Z</time>
      </trkpt>
      <trkpt lat="48.74367" lon="7.33423">
        <ele>429.41</ele>
        <time>2020-05-21T20:16:06.000Z</time>
      </trkpt>
      <trkpt lat="48.74372" lon="7.33422">
        <ele>430.33</ele>
        <time>2020-05-21T20:16:11.000Z</time>
      </trkpt>
      <trkpt lat="48.74377" lon="7.33419">
        <ele>431.91</ele>
        <time>2020-05-21T20:16:15.000Z</time>
      </trkpt>
      <trkpt lat="48.74381" lon="7.33422">
        <ele>433.42</ele>
        <time>2020-05-21T20:16:18.000Z</time>
      </trkpt>
      <trkpt lat="48.74386" lon="7.33426">
        <ele>433.86</ele>
        <time>2020-05-21T20:16:22.000Z</time>
      </trkpt>
      <trkpt lat="48.7439" lon="7.33425">
        <ele>432.96</ele>
        <time>2020-05-21T20:16:25.000Z</time>
      </trkpt>
      <trkpt lat="48.74395" lon="7.33425">
        <ele>435.61</ele>
        <time>2020-05-21T20:16:27.000Z</time>
      </trkpt>
      <trkpt lat="48.744" lon="7.33425">
        <ele>435.46</ele>
        <time>2020-05-21T20:16:29.000Z</time>
      </trkpt>
      <trkpt lat="48.74406" lon="7.33424">
        <ele>441</ele>
        <time>2020-05-21T20:16:32.000Z</time>
      </trkpt>
      <trkpt lat="48.74411" lon="7.33422">
        <ele>442.54</ele>
        <time>2020-05-21T20:16:34.000Z</time>
      </trkpt>
      <trkpt lat="48.74415" lon="7.33416">
        <ele>444.48</ele>
        <time>2020-05-21T20:16:37.000Z</time>
      </trkpt>
      <trkpt lat="48.74418" lon="7.33408">
        <ele>441.59</ele>
        <time>2020-05-21T20:16:40.000Z</time>
      </trkpt>
      <trkpt lat="48.74421" lon="7.334">
        <ele>444.4</ele>
        <time>2020-05-21T20:16:43.000Z</time>
      </trkpt>
      <trkpt lat="48.74425" lon="7.33395">
        <ele>444.29</ele>
        <time>2020-05-21T20:16:47.000Z</time>
      </trkpt>
      <trkpt lat="48.7443" lon="7.33397">
        <ele>444.7</ele>
        <time>2020-05-21T20:16:50.000Z</time>
      </trkpt>
      <trkpt lat="48.74434" lon="7.33401">
        <ele>444.95</ele>
        <time>2020-05-21T20:16:54.000Z</time>
      </trkpt>
      <trkpt lat="48.7444" lon="7.33403">
        <ele>447.98</ele>
        <time>2020-05-21T20:16:57.000Z</time>
      </trkpt>
      <trkpt lat="48.74446" lon="7.33405">
        <ele>449.46</ele>
        <time>2020-05-21T20:17:00.000Z</time>
      </trkpt>
      <trkpt lat="48.74451" lon="7.33404">
        <ele>451.68</ele>
        <time>2020-05-21T20:17:04.000Z</time>
      </trkpt>
      <trkpt lat="48.74458" lon="7.33404">
        <ele>451.12</ele>
        <time>2020-05-21T20:17:07.000Z</time>
      </trkpt>
      <trkpt lat="48.74463" lon="7.33405">
        <ele>453.1</ele>
        <time>2020-05-21T20:17:09.000Z</time>
      </trkpt>
      <trkpt lat="48.74469" lon="7.33404">
        <ele>455.06</ele>
        <time>2020-05-21T20:17:12.000Z</time>
      </trkpt>
      <trkpt lat="48.74474" lon="7.33404">
        <ele>456.23</ele>
        <time>2020-05-21T20:17:14.000Z</time>
      </trkpt>
      <trkpt lat="48.7448" lon="7.33404">
        <ele>454.29</ele>
        <time>2020-05-21T20:17:16.000Z</time>
      </trkpt>
      <trkpt lat="48.74484" lon="7.33402">
        <ele>455.59</ele>
        <time>2020-05-21T20:17:18.000Z</time>
      </trkpt>
      <trkpt lat="48.74489" lon="7.33401">
        <ele>457.59</ele>
        <time>2020-05-21T20:17:21.000Z</time>
      </trkpt>
      <trkpt lat="48.74494" lon="7.33401">
        <ele>459.69</ele>
        <time>2020-05-21T20:17:23.000Z</time>
      </trkpt>
      <trkpt lat="48.745" lon="7.33397">
        <ele>401.28</ele>
        <time>2020-05-21T20:17:26.000Z</time>
      </trkpt>
      <trkpt lat="48.74505" lon="7.33395">
        <ele>422.35</ele>
        <time>2020-05-21T20:17:28.000Z</time>
      </trkpt>
      <trkpt lat="48.74509" lon="7.33392">
        <ele>434.15</ele>
        <time>2020-05-21T20:17:30.000Z</time>
      </trkpt>
      <trkpt lat="48.74515" lon="7.33388">
        <ele>443.77</ele>
        <time>2020-05-21T20:17:33.000Z</time>
      </trkpt>
      <trkpt lat="48.7452" lon="7.33386">
        <ele>443.77</ele>
        <time>2020-05-21T20:17:35.000Z</time>
      </trkpt>
      <trkpt lat="48.74525" lon="7.33382">
        <ele>448.52</ele>
        <time>2020-05-21T20:17:38.000Z</time>
      </trkpt>
      <trkpt lat="48.74531" lon="7.33377">
        <ele>452.85</ele>
        <time>2020-05-21T20:17:41.000Z</time>
      </trkpt>
      <trkpt lat="48.74536" lon="7.33375">
        <ele>454.36</ele>
        <time>2020-05-21T20:17:44.000Z</time>
      </trkpt>
      <trkpt lat="48.74541" lon="7.33373">
        <ele>452.42</ele>
        <time>2020-05-21T20:17:46.000Z</time>
      </trkpt>
      <trkpt lat="48.74546" lon="7.33373">
        <ele>454.29</ele>
        <time>2020-05-21T20:17:48.000Z</time>
      </trkpt>
      <trkpt lat="48.7456" lon="7.33367">
        <ele>455.14</ele>
        <time>2020-05-21T20:17:52.000Z</time>
      </trkpt>
      <trkpt lat="48.74617" lon="7.33345">
        <ele>455.37</ele>
        <time>2020-05-21T20:18:02.000Z</time>
      </trkpt>
      <trkpt lat="48.74622" lon="7.3334">
        <ele>455.61</ele>
        <time>2020-05-21T20:18:03.000Z</time>
      </trkpt>
      <trkpt lat="48.74628" lon="7.33336">
        <ele>455.48</ele>
        <time>2020-05-21T20:18:04.000Z</time>
      </trkpt>
      <trkpt lat="48.74634" lon="7.33335">
        <ele>454.65</ele>
        <time>2020-05-21T20:18:05.000Z</time>
      </trkpt>
      <trkpt lat="48.74641" lon="7.33337">
        <ele>452.75</ele>
        <time>2020-05-21T20:18:06.000Z</time>
      </trkpt>
      <trkpt lat="48.74645" lon="7.33334">
        <ele>453.76</ele>
        <time>2020-05-21T20:18:07.000Z</time>
      </trkpt>
      <trkpt lat="48.74658" lon="7.33331">
        <ele>454.62</ele>
        <time>2020-05-21T20:18:09.000Z</time>
      </trkpt>
      <trkpt lat="48.74665" lon="7.33325">
        <ele>453.35</ele>
        <time>2020-05-21T20:18:10.000Z</time>
      </trkpt>
      <trkpt lat="48.74674" lon="7.33321">
        <ele>455.89</ele>
        <time>2020-05-21T20:18:12.000Z</time>
      </trkpt>
      <trkpt lat="48.74678" lon="7.33317">
        <ele>456.48</ele>
        <time>2020-05-21T20:18:13.000Z</time>
      </trkpt>
      <trkpt lat="48.74682" lon="7.33314">
        <ele>456.93</ele>
        <time>2020-05-21T20:18:14.000Z</time>
      </trkpt>
      <trkpt lat="48.74688" lon="7.33309">
        <ele>456.67</ele>
        <time>2020-05-21T20:18:16.000Z</time>
      </trkpt>
      <trkpt lat="48.74692" lon="7.33307">
        <ele>456.6</ele>
        <time>2020-05-21T20:18:17.000Z</time>
      </trkpt>
      <trkpt lat="48.747" lon="7.333">
        <ele>454.35</ele>
        <time>2020-05-21T20:18:19.000Z</time>
      </trkpt>
      <trkpt lat="48.74704" lon="7.33298">
        <ele>455.09</ele>
        <time>2020-05-21T20:18:20.000Z</time>
      </trkpt>
      <trkpt lat="48.7471" lon="7.33295">
        <ele>450.99</ele>
        <time>2020-05-21T20:18:22.000Z</time>
      </trkpt>
      <trkpt lat="48.74725" lon="7.33292">
        <ele>448.66</ele>
        <time>2020-05-21T20:18:25.000Z</time>
      </trkpt>
      <trkpt lat="48.74734" lon="7.33287">
        <ele>354.52</ele>
        <time>2020-05-21T20:18:27.000Z</time>
      </trkpt>
      <trkpt lat="48.74745" lon="7.33281">
        <ele>385.18</ele>
        <time>2020-05-21T20:18:29.000Z</time>
      </trkpt>
      <trkpt lat="48.74755" lon="7.33279">
        <ele>401.23</ele>
        <time>2020-05-21T20:18:31.000Z</time>
      </trkpt>
      <trkpt lat="48.74761" lon="7.33275">
        <ele>411.49</ele>
        <time>2020-05-21T20:18:32.000Z</time>
      </trkpt>
      <trkpt lat="48.74766" lon="7.33275">
        <ele>416.63</ele>
        <time>2020-05-21T20:18:33.000Z</time>
      </trkpt>
      <trkpt lat="48.74774" lon="7.33268">
        <ele>423.52</ele>
        <time>2020-05-21T20:18:35.000Z</time>
      </trkpt>
      <trkpt lat="48.74785" lon="7.33262">
        <ele>430.94</ele>
        <time>2020-05-21T20:18:37.000Z</time>
      </trkpt>
      <trkpt lat="48.74793" lon="7.33257">
        <ele>434.52</ele>
        <time>2020-05-21T20:18:38.000Z</time>
      </trkpt>
      <trkpt lat="48.748" lon="7.33255">
        <ele>438.21</ele>
        <time>2020-05-21T20:18:39.000Z</time>
      </trkpt>
      <trkpt lat="48.74804" lon="7.33249">
        <ele>438.81</ele>
        <time>2020-05-21T20:18:40.000Z</time>
      </trkpt>
      <trkpt lat="48.74812" lon="7.33246">
        <ele>439.02</ele>
        <time>2020-05-21T20:18:41.000Z</time>
      </trkpt>
      <trkpt lat="48.74819" lon="7.33243">
        <ele>440.15</ele>
        <time>2020-05-21T20:18:42.000Z</time>
      </trkpt>
      <trkpt lat="48.74825" lon="7.33238">
        <ele>442.19</ele>
        <time>2020-05-21T20:18:43.000Z</time>
      </trkpt>
      <trkpt lat="48.74831" lon="7.33235">
        <ele>443.2</ele>
        <time>2020-05-21T20:18:44.000Z</time>
      </trkpt>
      <trkpt lat="48.74835" lon="7.33229">
        <ele>443.64</ele>
        <time>2020-05-21T20:18:45.000Z</time>
      </trkpt>
      <trkpt lat="48.74841" lon="7.33223">
        <ele>443.11</ele>
        <time>2020-05-21T20:18:46.000Z</time>
      </trkpt>
      <trkpt lat="48.74846" lon="7.33217">
        <ele>442.85</ele>
        <time>2020-05-21T20:18:47.000Z</time>
      </trkpt>
      <trkpt lat="48.7485" lon="7.33208">
        <ele>442.88</ele>
        <time>2020-05-21T20:18:48.000Z</time>
      </trkpt>
      <trkpt lat="48.74853" lon="7.33201">
        <ele>442.02</ele>
        <time>2020-05-21T20:18:49.000Z</time>
      </trkpt>
      <trkpt lat="48.7486" lon="7.33199">
        <ele>443.2</ele>
        <time>2020-05-21T20:18:50.000Z</time>
      </trkpt>
      <trkpt lat="48.74866" lon="7.33193">
        <ele>444.1</ele>
        <time>2020-05-21T20:18:51.000Z</time>
      </trkpt>
      <trkpt lat="48.74873" lon="7.33187">
        <ele>445.86</ele>
        <time>2020-05-21T20:18:52.000Z</time>
      </trkpt>
      <trkpt lat="48.74881" lon="7.33184">
        <ele>448.14</ele>
        <time>2020-05-21T20:18:53.000Z</time>
      </trkpt>
      <trkpt lat="48.74887" lon="7.33179">
        <ele>448.16</ele>
        <time>2020-05-21T20:18:54.000Z</time>
      </trkpt>
      <trkpt lat="48.74893" lon="7.33172">
        <ele>451.02</ele>
        <time>2020-05-21T20:18:55.000Z</time>
      </trkpt>
      <trkpt lat="48.74901" lon="7.33169">
        <ele>450.17</ele>
        <time>2020-05-21T20:18:56.000Z</time>
      </trkpt>
      <trkpt lat="48.74907" lon="7.33163">
        <ele>449.38</ele>
        <time>2020-05-21T20:18:57.000Z</time>
      </trkpt>
      <trkpt lat="48.74912" lon="7.33156">
        <ele>449.54</ele>
        <time>2020-05-21T20:18:58.000Z</time>
      </trkpt>
      <trkpt lat="48.74918" lon="7.33149">
        <ele>448.31</ele>
        <time>2020-05-21T20:18:59.000Z</time>
      </trkpt>
      <trkpt lat="48.74923" lon="7.33142">
        <ele>447.47</ele>
        <time>2020-05-21T20:19:00.000Z</time>
      </trkpt>
      <trkpt lat="48.7493" lon="7.33137">
        <ele>445.86</ele>
        <time>2020-05-21T20:19:01.000Z</time>
      </trkpt>
      <trkpt lat="48.74936" lon="7.33132">
        <ele>445.64</ele>
        <time>2020-05-21T20:19:02.000Z</time>
      </trkpt>
      <trkpt lat="48.7494" lon="7.33124">
        <ele>445.13</ele>
        <time>2020-05-21T20:19:03.000Z</time>
      </trkpt>
      <trkpt lat="48.74946" lon="7.33115">
        <ele>444.48</ele>
        <time>2020-05-21T20:19:04.000Z</time>
      </trkpt>
      <trkpt lat="48.74953" lon="7.33107">
        <ele>445.44</ele>
        <time>2020-05-21T20:19:05.000Z</time>
      </trkpt>
      <trkpt lat="48.74959" lon="7.33101">
        <ele>445.64</ele>
        <time>2020-05-21T20:19:06.000Z</time>
      </trkpt>
      <trkpt lat="48.74967" lon="7.33097">
        <ele>445.93</ele>
        <time>2020-05-21T20:19:07.000Z</time>
      </trkpt>
      <trkpt lat="48.74973" lon="7.33093">
        <ele>445.94</ele>
        <time>2020-05-21T20:19:08.000Z</time>
      </trkpt>
      <trkpt lat="48.74979" lon="7.33091">
        <ele>442.31</ele>
        <time>2020-05-21T20:19:09.000Z</time>
      </trkpt>
      <trkpt lat="48.74984" lon="7.33087">
        <ele>442.79</ele>
        <time>2020-05-21T20:19:10.000Z</time>
      </trkpt>
      <trkpt lat="48.7499" lon="7.33084">
        <ele>439.69</ele>
        <time>2020-05-21T20:19:11.000Z</time>
      </trkpt>
      <trkpt lat="48.74995" lon="7.33081">
        <ele>437.63</ele>
        <time>2020-05-21T20:19:12.000Z</time>
      </trkpt>
      <trkpt lat="48.75" lon="7.33081">
        <ele>436.09</ele>
        <time>2020-05-21T20:19:13.000Z</time>
      </trkpt>
      <trkpt lat="48.75006" lon="7.33082">
        <ele>436.27</ele>
        <time>2020-05-21T20:19:14.000Z</time>
      </trkpt>
      <trkpt lat="48.75012" lon="7.33082">
        <ele>436.82</ele>
        <time>2020-05-21T20:19:15.000Z</time>
      </trkpt>
      <trkpt lat="48.7502" lon="7.33087">
        <ele>435.04</ele>
        <time>2020-05-21T20:19:16.000Z</time>
      </trkpt>
      <trkpt lat="48.75026" lon="7.33086">
        <ele>433.1</ele>
        <time>2020-05-21T20:19:17.000Z</time>
      </trkpt>
      <trkpt lat="48.75032" lon="7.3309">
        <ele>432.32</ele>
        <time>2020-05-21T20:19:18.000Z</time>
      </trkpt>
      <trkpt lat="48.75037" lon="7.33094">
        <ele>432.39</ele>
        <time>2020-05-21T20:19:19.000Z</time>
      </trkpt>
      <trkpt lat="48.75043" lon="7.33096">
        <ele>433.89</ele>
        <time>2020-05-21T20:19:20.000Z</time>
      </trkpt>
      <trkpt lat="48.75047" lon="7.33101">
        <ele>435.88</ele>
        <time>2020-05-21T20:19:21.000Z</time>
      </trkpt>
      <trkpt lat="48.75054" lon="7.33105">
        <ele>435.94</ele>
        <time>2020-05-21T20:19:22.000Z</time>
      </trkpt>
      <trkpt lat="48.7506" lon="7.33109">
        <ele>436.38</ele>
        <time>2020-05-21T20:19:23.000Z</time>
      </trkpt>
      <trkpt lat="48.75064" lon="7.33114">
        <ele>436.45</ele>
        <time>2020-05-21T20:19:24.000Z</time>
      </trkpt>
      <trkpt lat="48.75069" lon="7.3312">
        <ele>437.37</ele>
        <time>2020-05-21T20:19:25.000Z</time>
      </trkpt>
      <trkpt lat="48.75074" lon="7.33128">
        <ele>436.26</ele>
        <time>2020-05-21T20:19:26.000Z</time>
      </trkpt>
      <trkpt lat="48.7508" lon="7.33133">
        <ele>434.89</ele>
        <time>2020-05-21T20:19:27.000Z</time>
      </trkpt>
      <trkpt lat="48.75083" lon="7.33138">
        <ele>435.96</ele>
        <time>2020-05-21T20:19:28.000Z</time>
      </trkpt>
      <trkpt lat="48.75088" lon="7.33146">
        <ele>436.13</ele>
        <time>2020-05-21T20:19:29.000Z</time>
      </trkpt>
      <trkpt lat="48.75096" lon="7.33158">
        <ele>435.76</ele>
        <time>2020-05-21T20:19:31.000Z</time>
      </trkpt>
      <trkpt lat="48.751" lon="7.33164">
        <ele>435.92</ele>
        <time>2020-05-21T20:19:32.000Z</time>
      </trkpt>
      <trkpt lat="48.75103" lon="7.3317">
        <ele>435.83</ele>
        <time>2020-05-21T20:19:33.000Z</time>
      </trkpt>
      <trkpt lat="48.75107" lon="7.33175">
        <ele>436.58</ele>
        <time>2020-05-21T20:19:34.000Z</time>
      </trkpt>
      <trkpt lat="48.75111" lon="7.33181">
        <ele>435.94</ele>
        <time>2020-05-21T20:19:35.000Z</time>
      </trkpt>
      <trkpt lat="48.75115" lon="7.3319">
        <ele>435.64</ele>
        <time>2020-05-21T20:19:36.000Z</time>
      </trkpt>
      <trkpt lat="48.7512" lon="7.33198">
        <ele>436.7</ele>
        <time>2020-05-21T20:19:37.000Z</time>
      </trkpt>
      <trkpt lat="48.75123" lon="7.33205">
        <ele>438.69</ele>
        <time>2020-05-21T20:19:38.000Z</time>
      </trkpt>
      <trkpt lat="48.75127" lon="7.33212">
        <ele>438.38</ele>
        <time>2020-05-21T20:19:39.000Z</time>
      </trkpt>
      <trkpt lat="48.75131" lon="7.3322">
        <ele>378.84</ele>
        <time>2020-05-21T20:19:40.000Z</time>
      </trkpt>
      <trkpt lat="48.75136" lon="7.33229">
        <ele>392.03</ele>
        <time>2020-05-21T20:19:41.000Z</time>
      </trkpt>
      <trkpt lat="48.7514" lon="7.33237">
        <ele>407.02</ele>
        <time>2020-05-21T20:19:42.000Z</time>
      </trkpt>
      <trkpt lat="48.75144" lon="7.33243">
        <ele>416.06</ele>
        <time>2020-05-21T20:19:43.000Z</time>
      </trkpt>
      <trkpt lat="48.75146" lon="7.33249">
        <ele>428.97</ele>
        <time>2020-05-21T20:19:44.000Z</time>
      </trkpt>
      <trkpt lat="48.75151" lon="7.33257">
        <ele>428.63</ele>
        <time>2020-05-21T20:19:45.000Z</time>
      </trkpt>
      <trkpt lat="48.75155" lon="7.33266">
        <ele>430.27</ele>
        <time>2020-05-21T20:19:46.000Z</time>
      </trkpt>
      <trkpt lat="48.75159" lon="7.33274">
        <ele>431.99</ele>
        <time>2020-05-21T20:19:47.000Z</time>
      </trkpt>
      <trkpt lat="48.7516" lon="7.33281">
        <ele>430.97</ele>
        <time>2020-05-21T20:19:48.000Z</time>
      </trkpt>
      <trkpt lat="48.75163" lon="7.33288">
        <ele>431.85</ele>
        <time>2020-05-21T20:19:49.000Z</time>
      </trkpt>
      <trkpt lat="48.75166" lon="7.33296">
        <ele>432.09</ele>
        <time>2020-05-21T20:19:50.000Z</time>
      </trkpt>
      <trkpt lat="48.75169" lon="7.33303">
        <ele>431.25</ele>
        <time>2020-05-21T20:19:51.000Z</time>
      </trkpt>
      <trkpt lat="48.75174" lon="7.3331">
        <ele>432.98</ele>
        <time>2020-05-21T20:19:52.000Z</time>
      </trkpt>
      <trkpt lat="48.75178" lon="7.33316">
        <ele>432.02</ele>
        <time>2020-05-21T20:19:53.000Z</time>
      </trkpt>
      <trkpt lat="48.75179" lon="7.33322">
        <ele>430.84</ele>
        <time>2020-05-21T20:19:54.000Z</time>
      </trkpt>
      <trkpt lat="48.75182" lon="7.33329">
        <ele>430.36</ele>
        <time>2020-05-21T20:19:55.000Z</time>
      </trkpt>
      <trkpt lat="48.75186" lon="7.33334">
        <ele>428.71</ele>
        <time>2020-05-21T20:19:56.000Z</time>
      </trkpt>
      <trkpt lat="48.75191" lon="7.3334">
        <ele>428.84</ele>
        <time>2020-05-21T20:19:57.000Z</time>
      </trkpt>
      <trkpt lat="48.75196" lon="7.33348">
        <ele>427.82</ele>
        <time>2020-05-21T20:19:59.000Z</time>
      </trkpt>
      <trkpt lat="48.75199" lon="7.33354">
        <ele>427.44</ele>
        <time>2020-05-21T20:20:00.000Z</time>
      </trkpt>
      <trkpt lat="48.75202" lon="7.33359">
        <ele>428.49</ele>
        <time>2020-05-21T20:20:01.000Z</time>
      </trkpt>
      <trkpt lat="48.75209" lon="7.33371">
        <ele>427.63</ele>
        <time>2020-05-21T20:20:03.000Z</time>
      </trkpt>
      <trkpt lat="48.75215" lon="7.3338">
        <ele>427.05</ele>
        <time>2020-05-21T20:20:05.000Z</time>
      </trkpt>
      <trkpt lat="48.75219" lon="7.33388">
        <ele>427.02</ele>
        <time>2020-05-21T20:20:07.000Z</time>
      </trkpt>
      <trkpt lat="48.75225" lon="7.33399">
        <ele>427.73</ele>
        <time>2020-05-21T20:20:09.000Z</time>
      </trkpt>
      <trkpt lat="48.75226" lon="7.3341">
        <ele>427.09</ele>
        <time>2020-05-21T20:20:11.000Z</time>
      </trkpt>
      <trkpt lat="48.75231" lon="7.3342">
        <ele>428.37</ele>
        <time>2020-05-21T20:20:13.000Z</time>
      </trkpt>
      <trkpt lat="48.75236" lon="7.33428">
        <ele>432.15</ele>
        <time>2020-05-21T20:20:15.000Z</time>
      </trkpt>
      <trkpt lat="48.75241" lon="7.33434">
        <ele>434.62</ele>
        <time>2020-05-21T20:20:17.000Z</time>
      </trkpt>
      <trkpt lat="48.75245" lon="7.33442">
        <ele>432.83</ele>
        <time>2020-05-21T20:20:19.000Z</time>
      </trkpt>
      <trkpt lat="48.7525" lon="7.33451">
        <ele>431.88</ele>
        <time>2020-05-21T20:20:21.000Z</time>
      </trkpt>
      <trkpt lat="48.75255" lon="7.33457">
        <ele>430.32</ele>
        <time>2020-05-21T20:20:23.000Z</time>
      </trkpt>
      <trkpt lat="48.7526" lon="7.33462">
        <ele>433.07</ele>
        <time>2020-05-21T20:20:25.000Z</time>
      </trkpt>
      <trkpt lat="48.75265" lon="7.33468">
        <ele>432.53</ele>
        <time>2020-05-21T20:20:27.000Z</time>
      </trkpt>
      <trkpt lat="48.7527" lon="7.33474">
        <ele>434.32</ele>
        <time>2020-05-21T20:20:29.000Z</time>
      </trkpt>
      <trkpt lat="48.75275" lon="7.33481">
        <ele>434.11</ele>
        <time>2020-05-21T20:20:31.000Z</time>
      </trkpt>
      <trkpt lat="48.75282" lon="7.33484">
        <ele>436.05</ele>
        <time>2020-05-21T20:20:33.000Z</time>
      </trkpt>
      <trkpt lat="48.75288" lon="7.33482">
        <ele>436.53</ele>
        <time>2020-05-21T20:20:36.000Z</time>
      </trkpt>
      <trkpt lat="48.75293" lon="7.33481">
        <ele>436.88</ele>
        <time>2020-05-21T20:20:38.000Z</time>
      </trkpt>
      <trkpt lat="48.75301" lon="7.33483">
        <ele>437.67</ele>
        <time>2020-05-21T20:20:40.000Z</time>
      </trkpt>
      <trkpt lat="48.75308" lon="7.33483">
        <ele>390.36</ele>
        <time>2020-05-21T20:20:42.000Z</time>
      </trkpt>
      <trkpt lat="48.75316" lon="7.33482">
        <ele>411.71</ele>
        <time>2020-05-21T20:20:44.000Z</time>
      </trkpt>
      <trkpt lat="48.75325" lon="7.33483">
        <ele>421.25</ele>
        <time>2020-05-21T20:20:46.000Z</time>
      </trkpt>
      <trkpt lat="48.75333" lon="7.33484">
        <ele>430.87</ele>
        <time>2020-05-21T20:20:48.000Z</time>
      </trkpt>
      <trkpt lat="48.7534" lon="7.33484">
        <ele>432.83</ele>
        <time>2020-05-21T20:20:50.000Z</time>
      </trkpt>
      <trkpt lat="48.75348" lon="7.33483">
        <ele>431.98</ele>
        <time>2020-05-21T20:20:52.000Z</time>
      </trkpt>
      <trkpt lat="48.75355" lon="7.33484">
        <ele>433.51</ele>
        <time>2020-05-21T20:20:54.000Z</time>
      </trkpt>
      <trkpt lat="48.7536" lon="7.33486">
        <ele>433.65</ele>
        <time>2020-05-21T20:20:55.000Z</time>
      </trkpt>
      <trkpt lat="48.75363" lon="7.3349">
        <ele>434.17</ele>
        <time>2020-05-21T20:20:56.000Z</time>
      </trkpt>
      <trkpt lat="48.75368" lon="7.33498">
        <ele>433.3</ele>
        <time>2020-05-21T20:20:57.000Z</time>
      </trkpt>
      <trkpt lat="48.75372" lon="7.33505">
        <ele>432.71</ele>
        <time>2020-05-21T20:20:58.000Z</time>
      </trkpt>
      <trkpt lat="48.75376" lon="7.33512">
        <ele>433.74</ele>
        <time>2020-05-21T20:20:59.000Z</time>
      </trkpt>
      <trkpt lat="48.7538" lon="7.33518">
        <ele>433.32</ele>
        <time>2020-05-21T20:21:00.000Z</time>
      </trkpt>
      <trkpt lat="48.75385" lon="7.33525">
        <ele>433.06</ele>
        <time>2020-05-21T20:21:01.000Z</time>
      </trkpt>
      <trkpt lat="48.75388" lon="7.33533">
        <ele>432.65</ele>
        <time>2020-05-21T20:21:02.000Z</time>
      </trkpt>
      <trkpt lat="48.75391" lon="7.33543">
        <ele>431.64</ele>
        <time>2020-05-21T20:21:03.000Z</time>
      </trkpt>
      <trkpt lat="48.75395" lon="7.33552">
        <ele>431.56</ele>
        <time>2020-05-21T20:21:04.000Z</time>
      </trkpt>
      <trkpt lat="48.75399" lon="7.33561">
        <ele>430.74</ele>
        <time>2020-05-21T20:21:05.000Z</time>
      </trkpt>
      <trkpt lat="48.75402" lon="7.3357">
        <ele>429.59</ele>
        <time>2020-05-21T20:21:06.000Z</time>
      </trkpt>
      <trkpt lat="48.75403" lon="7.3358">
        <ele>429.26</ele>
        <time>2020-05-21T20:21:07.000Z</time>
      </trkpt>
      <trkpt lat="48.75403" lon="7.3359">
        <ele>428.91</ele>
        <time>2020-05-21T20:21:08.000Z</time>
      </trkpt>
      <trkpt lat="48.75401" lon="7.336">
        <ele>428.69</ele>
        <time>2020-05-21T20:21:09.000Z</time>
      </trkpt>
      <trkpt lat="48.75399" lon="7.33608">
        <ele>430.2</ele>
        <time>2020-05-21T20:21:10.000Z</time>
      </trkpt>
      <trkpt lat="48.75396" lon="7.33617">
        <ele>429.78</ele>
        <time>2020-05-21T20:21:11.000Z</time>
      </trkpt>
      <trkpt lat="48.75392" lon="7.33625">
        <ele>429.8</ele>
        <time>2020-05-21T20:21:12.000Z</time>
      </trkpt>
      <trkpt lat="48.75391" lon="7.33634">
        <ele>430.93</ele>
        <time>2020-05-21T20:21:13.000Z</time>
      </trkpt>
      <trkpt lat="48.75391" lon="7.33645">
        <ele>431.23</ele>
        <time>2020-05-21T20:21:14.000Z</time>
      </trkpt>
      <trkpt lat="48.7539" lon="7.33654">
        <ele>431.57</ele>
        <time>2020-05-21T20:21:15.000Z</time>
      </trkpt>
      <trkpt lat="48.75391" lon="7.33664">
        <ele>430.72</ele>
        <time>2020-05-21T20:21:16.000Z</time>
      </trkpt>
      <trkpt lat="48.75391" lon="7.33674">
        <ele>429.61</ele>
        <time>2020-05-21T20:21:17.000Z</time>
      </trkpt>
      <trkpt lat="48.75392" lon="7.33684">
        <ele>428.22</ele>
        <time>2020-05-21T20:21:18.000Z</time>
      </trkpt>
      <trkpt lat="48.75389" lon="7.33706">
        <ele>428.63</ele>
        <time>2020-05-21T20:21:20.000Z</time>
      </trkpt>
      <trkpt lat="48.75387" lon="7.33715">
        <ele>428.96</ele>
        <time>2020-05-21T20:21:21.000Z</time>
      </trkpt>
      <trkpt lat="48.75386" lon="7.33728">
        <ele>428.87</ele>
        <time>2020-05-21T20:21:23.000Z</time>
      </trkpt>
      <trkpt lat="48.75387" lon="7.33737">
        <ele>405.55</ele>
        <time>2020-05-21T20:21:27.000Z</time>
      </trkpt>
      <trkpt lat="48.75386" lon="7.33744">
        <ele>415.65</ele>
        <time>2020-05-21T20:21:29.000Z</time>
      </trkpt>
      <trkpt lat="48.75386" lon="7.33751">
        <ele>422.81</ele>
        <time>2020-05-21T20:21:31.000Z</time>
      </trkpt>
      <trkpt lat="48.75388" lon="7.33763">
        <ele>427.64</ele>
        <time>2020-05-21T20:21:33.000Z</time>
      </trkpt>
      <trkpt lat="48.75389" lon="7.33778">
        <ele>427.4</ele>
        <time>2020-05-21T20:21:35.000Z</time>
      </trkpt>
      <trkpt lat="48.7539" lon="7.33785">
        <ele>428.1</ele>
        <time>2020-05-21T20:21:36.000Z</time>
      </trkpt>
      <trkpt lat="48.75391" lon="7.33793">
        <ele>427.83</ele>
        <time>2020-05-21T20:21:37.000Z</time>
      </trkpt>
      <trkpt lat="48.75392" lon="7.33803">
        <ele>428.52</ele>
        <time>2020-05-21T20:21:39.000Z</time>
      </trkpt>
      <trkpt lat="48.75391" lon="7.33814">
        <ele>426.79</ele>
        <time>2020-05-21T20:21:41.000Z</time>
      </trkpt>
      <trkpt lat="48.75391" lon="7.33827">
        <ele>426.08</ele>
        <time>2020-05-21T20:21:43.000Z</time>
      </trkpt>
      <trkpt lat="48.75392" lon="7.33839">
        <ele>425.72</ele>
        <time>2020-05-21T20:21:45.000Z</time>
      </trkpt>
      <trkpt lat="48.75394" lon="7.33846">
        <ele>424.37</ele>
        <time>2020-05-21T20:21:46.000Z</time>
      </trkpt>
      <trkpt lat="48.75395" lon="7.33852">
        <ele>424.02</ele>
        <time>2020-05-21T20:21:47.000Z</time>
      </trkpt>
      <trkpt lat="48.75397" lon="7.33859">
        <ele>424.82</ele>
        <time>2020-05-21T20:21:48.000Z</time>
      </trkpt>
      <trkpt lat="48.75403" lon="7.33873">
        <ele>426.01</ele>
        <time>2020-05-21T20:21:50.000Z</time>
      </trkpt>
      <trkpt lat="48.75409" lon="7.33885">
        <ele>427.55</ele>
        <time>2020-05-21T20:21:52.000Z</time>
      </trkpt>
      <trkpt lat="48.75411" lon="7.33891">
        <ele>428.35</ele>
        <time>2020-05-21T20:21:53.000Z</time>
      </trkpt>
      <trkpt lat="48.75414" lon="7.33898">
        <ele>428.89</ele>
        <time>2020-05-21T20:21:54.000Z</time>
      </trkpt>
      <trkpt lat="48.75414" lon="7.33911">
        <ele>425.23</ele>
        <time>2020-05-21T20:21:56.000Z</time>
      </trkpt>
      <trkpt lat="48.7542" lon="7.33919">
        <ele>426.06</ele>
        <time>2020-05-21T20:21:58.000Z</time>
      </trkpt>
      <trkpt lat="48.75422" lon="7.33929">
        <ele>426.88</ele>
        <time>2020-05-21T20:22:00.000Z</time>
      </trkpt>
      <trkpt lat="48.75426" lon="7.33938">
        <ele>422.73</ele>
        <time>2020-05-21T20:22:02.000Z</time>
      </trkpt>
      <trkpt lat="48.7543" lon="7.33949">
        <ele>422.47</ele>
        <time>2020-05-21T20:22:04.000Z</time>
      </trkpt>
      <trkpt lat="48.75438" lon="7.33965">
        <ele>421.84</ele>
        <time>2020-05-21T20:22:06.000Z</time>
      </trkpt>
      <trkpt lat="48.75442" lon="7.33971">
        <ele>420.54</ele>
        <time>2020-05-21T20:22:07.000Z</time>
      </trkpt>
      <trkpt lat="48.75446" lon="7.33977">
        <ele>421.93</ele>
        <time>2020-05-21T20:22:08.000Z</time>
      </trkpt>
      <trkpt lat="48.7545" lon="7.33983">
        <ele>421.6</ele>
        <time>2020-05-21T20:22:09.000Z</time>
      </trkpt>
      <trkpt lat="48.75454" lon="7.33987">
        <ele>420.31</ele>
        <time>2020-05-21T20:22:10.000Z</time>
      </trkpt>
      <trkpt lat="48.75459" lon="7.33995">
        <ele>419.47</ele>
        <time>2020-05-21T20:22:12.000Z</time>
      </trkpt>
      <trkpt lat="48.75462" lon="7.34001">
        <ele>419.76</ele>
        <time>2020-05-21T20:22:13.000Z</time>
      </trkpt>
      <trkpt lat="48.75466" lon="7.34006">
        <ele>420.68</ele>
        <time>2020-05-21T20:22:15.000Z</time>
      </trkpt>
      <trkpt lat="48.75472" lon="7.34013">
        <ele>419.76</ele>
        <time>2020-05-21T20:22:17.000Z</time>
      </trkpt>
      <trkpt lat="48.75476" lon="7.34018">
        <ele>419.77</ele>
        <time>2020-05-21T20:22:18.000Z</time>
      </trkpt>
      <trkpt lat="48.7548" lon="7.34022">
        <ele>420.06</ele>
        <time>2020-05-21T20:22:19.000Z</time>
      </trkpt>
      <trkpt lat="48.75484" lon="7.34027">
        <ele>420.23</ele>
        <time>2020-05-21T20:22:20.000Z</time>
      </trkpt>
      <trkpt lat="48.75488" lon="7.34031">
        <ele>420.84</ele>
        <time>2020-05-21T20:22:21.000Z</time>
      </trkpt>
      <trkpt lat="48.75492" lon="7.34035">
        <ele>422.37</ele>
        <time>2020-05-21T20:22:22.000Z</time>
      </trkpt>
      <trkpt lat="48.75498" lon="7.3404">
        <ele>425.03</ele>
        <time>2020-05-21T20:22:24.000Z</time>
      </trkpt>
      <trkpt lat="48.75503" lon="7.34046">
        <ele>424.65</ele>
        <time>2020-05-21T20:22:26.000Z</time>
      </trkpt>
      <trkpt lat="48.7551" lon="7.34052">
        <ele>423.59</ele>
        <time>2020-05-21T20:22:28.000Z</time>
      </trkpt>
      <trkpt lat="48.75517" lon="7.34059">
        <ele>422.8</ele>
        <time>2020-05-21T20:22:30.000Z</time>
      </trkpt>
      <trkpt lat="48.75522" lon="7.34062">
        <ele>421.1</ele>
        <time>2020-05-21T20:22:31.000Z</time>
      </trkpt>
      <trkpt lat="48.75526" lon="7.34065">
        <ele>421.81</ele>
        <time>2020-05-21T20:22:32.000Z</time>
      </trkpt>
      <trkpt lat="48.7553" lon="7.34069">
        <ele>422.18</ele>
        <time>2020-05-21T20:22:33.000Z</time>
      </trkpt>
      <trkpt lat="48.75537" lon="7.34074">
        <ele>419.81</ele>
        <time>2020-05-21T20:22:35.000Z</time>
      </trkpt>
      <trkpt lat="48.75543" lon="7.34083">
        <ele>418.56</ele>
        <time>2020-05-21T20:22:37.000Z</time>
      </trkpt>
      <trkpt lat="48.7556" lon="7.34111">
        <ele>416.98</ele>
        <time>2020-05-21T20:22:41.000Z</time>
      </trkpt>
      <trkpt lat="48.75566" lon="7.34123">
        <ele>415.71</ele>
        <time>2020-05-21T20:22:43.000Z</time>
      </trkpt>
      <trkpt lat="48.75569" lon="7.34129">
        <ele>415.65</ele>
        <time>2020-05-21T20:22:44.000Z</time>
      </trkpt>
      <trkpt lat="48.75573" lon="7.34136">
        <ele>415.06</ele>
        <time>2020-05-21T20:22:45.000Z</time>
      </trkpt>
      <trkpt lat="48.75577" lon="7.34147">
        <ele>414.64</ele>
        <time>2020-05-21T20:22:47.000Z</time>
      </trkpt>
      <trkpt lat="48.7558" lon="7.34158">
        <ele>414.6</ele>
        <time>2020-05-21T20:22:49.000Z</time>
      </trkpt>
      <trkpt lat="48.75583" lon="7.34167">
        <ele>414.09</ele>
        <time>2020-05-21T20:22:51.000Z</time>
      </trkpt>
      <trkpt lat="48.75589" lon="7.34179">
        <ele>413.28</ele>
        <time>2020-05-21T20:22:53.000Z</time>
      </trkpt>
      <trkpt lat="48.75593" lon="7.3419">
        <ele>412.66</ele>
        <time>2020-05-21T20:22:55.000Z</time>
      </trkpt>
      <trkpt lat="48.75595" lon="7.34204">
        <ele>412.75</ele>
        <time>2020-05-21T20:22:57.000Z</time>
      </trkpt>
      <trkpt lat="48.75595" lon="7.34215">
        <ele>410.43</ele>
        <time>2020-05-21T20:22:59.000Z</time>
      </trkpt>
      <trkpt lat="48.75599" lon="7.34224">
        <ele>411.12</ele>
        <time>2020-05-21T20:23:01.000Z</time>
      </trkpt>
      <trkpt lat="48.75605" lon="7.34242">
        <ele>407.12</ele>
        <time>2020-05-21T20:23:04.000Z</time>
      </trkpt>
      <trkpt lat="48.75608" lon="7.3425">
        <ele>406.23</ele>
        <time>2020-05-21T20:23:05.000Z</time>
      </trkpt>
      <trkpt lat="48.7561" lon="7.34262">
        <ele>404.94</ele>
        <time>2020-05-21T20:23:07.000Z</time>
      </trkpt>
      <trkpt lat="48.75614" lon="7.34285">
        <ele>401.21</ele>
        <time>2020-05-21T20:23:10.000Z</time>
      </trkpt>
      <trkpt lat="48.75619" lon="7.3429">
        <ele>398.01</ele>
        <time>2020-05-21T20:23:11.000Z</time>
      </trkpt>
      <trkpt lat="48.75623" lon="7.34297">
        <ele>397.02</ele>
        <time>2020-05-21T20:23:12.000Z</time>
      </trkpt>
      <trkpt lat="48.75624" lon="7.34304">
        <ele>396.25</ele>
        <time>2020-05-21T20:23:13.000Z</time>
      </trkpt>
      <trkpt lat="48.75624" lon="7.34316">
        <ele>396.31</ele>
        <time>2020-05-21T20:23:15.000Z</time>
      </trkpt>
      <trkpt lat="48.75627" lon="7.34323">
        <ele>396.43</ele>
        <time>2020-05-21T20:23:16.000Z</time>
      </trkpt>
      <trkpt lat="48.75629" lon="7.3433">
        <ele>396.47</ele>
        <time>2020-05-21T20:23:17.000Z</time>
      </trkpt>
      <trkpt lat="48.75634" lon="7.34337">
        <ele>397.2</ele>
        <time>2020-05-21T20:23:19.000Z</time>
      </trkpt>
      <trkpt lat="48.75638" lon="7.34348">
        <ele>396.24</ele>
        <time>2020-05-21T20:23:21.000Z</time>
      </trkpt>
      <trkpt lat="48.75637" lon="7.34356">
        <ele>394.51</ele>
        <time>2020-05-21T20:23:23.000Z</time>
      </trkpt>
      <trkpt lat="48.7564" lon="7.34362">
        <ele>392.58</ele>
        <time>2020-05-21T20:23:39.000Z</time>
      </trkpt>
      <trkpt lat="48.75642" lon="7.34368">
        <ele>393.93</ele>
        <time>2020-05-21T20:23:43.000Z</time>
      </trkpt>
      <trkpt lat="48.75643" lon="7.34375">
        <ele>394.29</ele>
        <time>2020-05-21T20:23:45.000Z</time>
      </trkpt>
      <trkpt lat="48.75646" lon="7.34382">
        <ele>393.14</ele>
        <time>2020-05-21T20:23:47.000Z</time>
      </trkpt>
      <trkpt lat="48.75651" lon="7.34393">
        <ele>393.64</ele>
        <time>2020-05-21T20:23:49.000Z</time>
      </trkpt>
      <trkpt lat="48.75659" lon="7.34415">
        <ele>391.9</ele>
        <time>2020-05-21T20:23:52.000Z</time>
      </trkpt>
      <trkpt lat="48.75661" lon="7.34423">
        <ele>391.33</ele>
        <time>2020-05-21T20:23:53.000Z</time>
      </trkpt>
      <trkpt lat="48.75663" lon="7.34431">
        <ele>390.79</ele>
        <time>2020-05-21T20:23:54.000Z</time>
      </trkpt>
      <trkpt lat="48.75665" lon="7.34438">
        <ele>391.01</ele>
        <time>2020-05-21T20:23:55.000Z</time>
      </trkpt>
      <trkpt lat="48.75668" lon="7.34444">
        <ele>388.9</ele>
        <time>2020-05-21T20:23:56.000Z</time>
      </trkpt>
      <trkpt lat="48.75671" lon="7.34452">
        <ele>387.62</ele>
        <time>2020-05-21T20:23:57.000Z</time>
      </trkpt>
      <trkpt lat="48.75673" lon="7.34459">
        <ele>306.89</ele>
        <time>2020-05-21T20:23:58.000Z</time>
      </trkpt>
      <trkpt lat="48.75678" lon="7.34466">
        <ele>316.74</ele>
        <time>2020-05-21T20:23:59.000Z</time>
      </trkpt>
      <trkpt lat="48.7568" lon="7.34473">
        <ele>328.34</ele>
        <time>2020-05-21T20:24:00.000Z</time>
      </trkpt>
      <trkpt lat="48.75682" lon="7.3448">
        <ele>336.55</ele>
        <time>2020-05-21T20:24:01.000Z</time>
      </trkpt>
      <trkpt lat="48.75681" lon="7.34487">
        <ele>344.87</ele>
        <time>2020-05-21T20:24:02.000Z</time>
      </trkpt>
      <trkpt lat="48.75681" lon="7.34495">
        <ele>352.74</ele>
        <time>2020-05-21T20:24:03.000Z</time>
      </trkpt>
      <trkpt lat="48.7569" lon="7.34504">
        <ele>340.38</ele>
        <time>2020-05-21T20:24:05.000Z</time>
      </trkpt>
      <trkpt lat="48.75695" lon="7.34509">
        <ele>347.09</ele>
        <time>2020-05-21T20:24:06.000Z</time>
      </trkpt>
      <trkpt lat="48.757" lon="7.34519">
        <ele>355.2</ele>
        <time>2020-05-21T20:24:07.000Z</time>
      </trkpt>
      <trkpt lat="48.75704" lon="7.34525">
        <ele>359.91</ele>
        <time>2020-05-21T20:24:08.000Z</time>
      </trkpt>
      <trkpt lat="48.75708" lon="7.34531">
        <ele>361.51</ele>
        <time>2020-05-21T20:24:09.000Z</time>
      </trkpt>
      <trkpt lat="48.75713" lon="7.34533">
        <ele>364.49</ele>
        <time>2020-05-21T20:24:10.000Z</time>
      </trkpt>
      <trkpt lat="48.75717" lon="7.34538">
        <ele>365.73</ele>
        <time>2020-05-21T20:24:11.000Z</time>
      </trkpt>
      <trkpt lat="48.75721" lon="7.34544">
        <ele>367.26</ele>
        <time>2020-05-21T20:24:12.000Z</time>
      </trkpt>
      <trkpt lat="48.75726" lon="7.34546">
        <ele>367.3</ele>
        <time>2020-05-21T20:24:13.000Z</time>
      </trkpt>
      <trkpt lat="48.75729" lon="7.34551">
        <ele>368.63</ele>
        <time>2020-05-21T20:24:14.000Z</time>
      </trkpt>
      <trkpt lat="48.75736" lon="7.34551">
        <ele>321.97</ele>
        <time>2020-05-21T20:24:15.000Z</time>
      </trkpt>
      <trkpt lat="48.75741" lon="7.34552">
        <ele>330.03</ele>
        <time>2020-05-21T20:24:16.000Z</time>
      </trkpt>
      <trkpt lat="48.75747" lon="7.3455">
        <ele>340.44</ele>
        <time>2020-05-21T20:24:17.000Z</time>
      </trkpt>
      <trkpt lat="48.75758" lon="7.34549">
        <ele>328.11</ele>
        <time>2020-05-21T20:24:19.000Z</time>
      </trkpt>
      <trkpt lat="48.75764" lon="7.34548">
        <ele>339.34</ele>
        <time>2020-05-21T20:24:20.000Z</time>
      </trkpt>
      <trkpt lat="48.75771" lon="7.34549">
        <ele>349.46</ele>
        <time>2020-05-21T20:24:21.000Z</time>
      </trkpt>
      <trkpt lat="48.75777" lon="7.3455">
        <ele>355.61</ele>
        <time>2020-05-21T20:24:22.000Z</time>
      </trkpt>
      <trkpt lat="48.75804" lon="7.34563">
        <ele>368.96</ele>
        <time>2020-05-21T20:24:26.000Z</time>
      </trkpt>
      <trkpt lat="48.75816" lon="7.34576">
        <ele>365.99</ele>
        <time>2020-05-21T20:24:29.000Z</time>
      </trkpt>
      <trkpt lat="48.75822" lon="7.34582">
        <ele>369.7</ele>
        <time>2020-05-21T20:24:31.000Z</time>
      </trkpt>
      <trkpt lat="48.75827" lon="7.3459">
        <ele>372.17</ele>
        <time>2020-05-21T20:24:33.000Z</time>
      </trkpt>
      <trkpt lat="48.75834" lon="7.34602">
        <ele>373.49</ele>
        <time>2020-05-21T20:24:35.000Z</time>
      </trkpt>
      <trkpt lat="48.75841" lon="7.34603">
        <ele>373.55</ele>
        <time>2020-05-21T20:24:37.000Z</time>
      </trkpt>
      <trkpt lat="48.75848" lon="7.34598">
        <ele>373.05</ele>
        <time>2020-05-21T20:24:39.000Z</time>
      </trkpt>
      <trkpt lat="48.75852" lon="7.34593">
        <ele>311.83</ele>
        <time>2020-05-21T20:24:41.000Z</time>
      </trkpt>
      <trkpt lat="48.75856" lon="7.34588">
        <ele>336.12</ele>
        <time>2020-05-21T20:24:43.000Z</time>
      </trkpt>
      <trkpt lat="48.75862" lon="7.34583">
        <ele>352.38</ele>
        <time>2020-05-21T20:24:46.000Z</time>
      </trkpt>
      <trkpt lat="48.75866" lon="7.34578">
        <ele>362.53</ele>
        <time>2020-05-21T20:24:49.000Z</time>
      </trkpt>
      <trkpt lat="48.7587" lon="7.34575">
        <ele>362.53</ele>
        <time>2020-05-21T20:24:51.000Z</time>
      </trkpt>
      <trkpt lat="48.75877" lon="7.34573">
        <ele>366.77</ele>
        <time>2020-05-21T20:24:53.000Z</time>
      </trkpt>
      <trkpt lat="48.75884" lon="7.34571">
        <ele>370.57</ele>
        <time>2020-05-21T20:24:55.000Z</time>
      </trkpt>
      <trkpt lat="48.75902" lon="7.34553">
        <ele>372.91</ele>
        <time>2020-05-21T20:24:59.000Z</time>
      </trkpt>
      <trkpt lat="48.75906" lon="7.34548">
        <ele>372.75</ele>
        <time>2020-05-21T20:25:00.000Z</time>
      </trkpt>
      <trkpt lat="48.75916" lon="7.34541">
        <ele>374.38</ele>
        <time>2020-05-21T20:25:02.000Z</time>
      </trkpt>
      <trkpt lat="48.75922" lon="7.34537">
        <ele>374.48</ele>
        <time>2020-05-21T20:25:07.000Z</time>
      </trkpt>
      <trkpt lat="48.75928" lon="7.3453">
        <ele>373.16</ele>
        <time>2020-05-21T20:25:10.000Z</time>
      </trkpt>
      <trkpt lat="48.75933" lon="7.34524">
        <ele>373.47</ele>
        <time>2020-05-21T20:25:12.000Z</time>
      </trkpt>
      <trkpt lat="48.75937" lon="7.3452">
        <ele>372.76</ele>
        <time>2020-05-21T20:25:14.000Z</time>
      </trkpt>
      <trkpt lat="48.75941" lon="7.34515">
        <ele>384.43</ele>
        <time>2020-05-21T20:26:45.000Z</time>
      </trkpt>
      <trkpt lat="48.75946" lon="7.34513">
        <ele>384.44</ele>
        <time>2020-05-21T20:26:47.000Z</time>
      </trkpt>
      <trkpt lat="48.75952" lon="7.34507">
        <ele>383.1</ele>
        <time>2020-05-21T20:26:49.000Z</time>
      </trkpt>
      <trkpt lat="48.75956" lon="7.34501">
        <ele>381.48</ele>
        <time>2020-05-21T20:26:51.000Z</time>
      </trkpt>
      <trkpt lat="48.75963" lon="7.34494">
        <ele>379.37</ele>
        <time>2020-05-21T20:26:53.000Z</time>
      </trkpt>
      <trkpt lat="48.75967" lon="7.3449">
        <ele>376.18</ele>
        <time>2020-05-21T20:26:55.000Z</time>
      </trkpt>
      <trkpt lat="48.76008" lon="7.34469">
        <ele>374.73</ele>
        <time>2020-05-21T20:27:03.000Z</time>
      </trkpt>
      <trkpt lat="48.76019" lon="7.34458">
        <ele>373.44</ele>
        <time>2020-05-21T20:27:06.000Z</time>
      </trkpt>
      <trkpt lat="48.76027" lon="7.34459">
        <ele>373.74</ele>
        <time>2020-05-21T20:27:09.000Z</time>
      </trkpt>
      <trkpt lat="48.76032" lon="7.3446">
        <ele>373.26</ele>
        <time>2020-05-21T20:27:10.000Z</time>
      </trkpt>
      <trkpt lat="48.76037" lon="7.34457">
        <ele>369.06</ele>
        <time>2020-05-21T20:27:12.000Z</time>
      </trkpt>
      <trkpt lat="48.76044" lon="7.34452">
        <ele>366.22</ele>
        <time>2020-05-21T20:27:14.000Z</time>
      </trkpt>
      <trkpt lat="48.76053" lon="7.3445">
        <ele>363.27</ele>
        <time>2020-05-21T20:27:16.000Z</time>
      </trkpt>
      <trkpt lat="48.76073" lon="7.34441">
        <ele>357.61</ele>
        <time>2020-05-21T20:27:20.000Z</time>
      </trkpt>
      <trkpt lat="48.76079" lon="7.3444">
        <ele>357.46</ele>
        <time>2020-05-21T20:27:21.000Z</time>
      </trkpt>
      <trkpt lat="48.76091" lon="7.34434">
        <ele>356.1</ele>
        <time>2020-05-21T20:27:23.000Z</time>
      </trkpt>
      <trkpt lat="48.76096" lon="7.34432">
        <ele>354.83</ele>
        <time>2020-05-21T20:27:24.000Z</time>
      </trkpt>
      <trkpt lat="48.761" lon="7.3443">
        <ele>354.46</ele>
        <time>2020-05-21T20:27:25.000Z</time>
      </trkpt>
      <trkpt lat="48.76114" lon="7.34425">
        <ele>351.49</ele>
        <time>2020-05-21T20:27:27.000Z</time>
      </trkpt>
      <trkpt lat="48.76119" lon="7.34414">
        <ele>349.19</ele>
        <time>2020-05-21T20:27:29.000Z</time>
      </trkpt>
      <trkpt lat="48.76121" lon="7.34406">
        <ele>347.22</ele>
        <time>2020-05-21T20:27:31.000Z</time>
      </trkpt>
      <trkpt lat="48.76145" lon="7.34389">
        <ele>346.91</ele>
        <time>2020-05-21T20:27:35.000Z</time>
      </trkpt>
      <trkpt lat="48.76153" lon="7.34379">
        <ele>345.3</ele>
        <time>2020-05-21T20:27:37.000Z</time>
      </trkpt>
      <trkpt lat="48.76156" lon="7.34368">
        <ele>342.93</ele>
        <time>2020-05-21T20:27:39.000Z</time>
      </trkpt>
      <trkpt lat="48.76162" lon="7.34362">
        <ele>341.51</ele>
        <time>2020-05-21T20:27:41.000Z</time>
      </trkpt>
      <trkpt lat="48.76166" lon="7.34358">
        <ele>340.16</ele>
        <time>2020-05-21T20:27:42.000Z</time>
      </trkpt>
      <trkpt lat="48.76166" lon="7.34345">
        <ele>337.53</ele>
        <time>2020-05-21T20:27:44.000Z</time>
      </trkpt>
    </trkseg>
  </trk>
</gpx>